<?xml version="1.0" encoding="UTF-8" standalone="no" ?>
<gpx xmlns="http://www.topografix.com/GPX/1/1" xmlns:xsi="http://www.w3.org/2001/XMLSchema-instance" xsi:schemaLocation="http://www.topografix.com/GPX/1/1 http://www.topografix.com/GPX/1/1/gpx.xsd" version="1.1" creator="VisuGPX - https://www.visugpx.com">
  <metadata>
    <name>Trail BRC Baigura</name>
  </metadata>
  <trk>
    <name><![CDATA[Grande boucle Baigura]]></name>
    <extensions>
      <line xmlns="http://www.topografix.com/GPX/gpx_style/0/2">
        <color>0000FF</color>
        <opacity>1</opacity>
        <width>4</width>
          <extensions>
            <sens>1</sens>
          </extensions>
      </line>
    </extensions>
    <trkseg>
      <trkpt lat="43.30974" lon="-1.28295">
        <ele>299</ele>
        <time>2023-12-21T10:23:37Z</time>
      </trkpt>
      <trkpt lat="43.30945" lon="-1.28303">
        <ele>297</ele>
        <time>2023-12-21T10:23:52Z</time>
      </trkpt>
      <trkpt lat="43.30935" lon="-1.28287">
        <ele>297</ele>
        <time>2023-12-21T10:23:59Z</time>
      </trkpt>
      <trkpt lat="43.30922" lon="-1.28261">
        <ele>297</ele>
        <time>2023-12-21T10:24:11Z</time>
      </trkpt>
      <trkpt lat="43.30907" lon="-1.28219">
        <ele>298</ele>
        <time>2023-12-21T10:24:28Z</time>
      </trkpt>
      <trkpt lat="43.30884" lon="-1.28138">
        <ele>301</ele>
        <time>2023-12-21T10:25:00Z</time>
      </trkpt>
      <trkpt lat="43.30878" lon="-1.28106">
        <ele>301</ele>
        <time>2023-12-21T10:25:12Z</time>
      </trkpt>
      <trkpt lat="43.30867" lon="-1.28089">
        <ele>302</ele>
        <time>2023-12-21T10:25:20Z</time>
      </trkpt>
      <trkpt lat="43.30855" lon="-1.28081">
        <ele>303</ele>
        <time>2023-12-21T10:25:27Z</time>
      </trkpt>
      <trkpt lat="43.30798" lon="-1.28067">
        <ele>307</ele>
        <time>2023-12-21T10:25:56Z</time>
      </trkpt>
      <trkpt lat="43.30768" lon="-1.28052">
        <ele>309</ele>
        <time>2023-12-21T10:26:12Z</time>
      </trkpt>
      <trkpt lat="43.30723" lon="-1.28048">
        <ele>317</ele>
        <time>2023-12-21T10:26:34Z</time>
      </trkpt>
      <trkpt lat="43.30699" lon="-1.2804">
        <ele>321</ele>
        <time>2023-12-21T10:26:47Z</time>
      </trkpt>
      <trkpt lat="43.30679" lon="-1.28038">
        <ele>325</ele>
        <time>2023-12-21T10:26:57Z</time>
      </trkpt>
      <trkpt lat="43.30648" lon="-1.28026">
        <ele>331</ele>
        <time>2023-12-21T10:27:13Z</time>
      </trkpt>
      <trkpt lat="43.30641" lon="-1.28036">
        <ele>333</ele>
        <time>2023-12-21T10:27:18Z</time>
      </trkpt>
      <trkpt lat="43.30635" lon="-1.28101">
        <ele>340</ele>
        <time>2023-12-21T10:27:42Z</time>
      </trkpt>
      <trkpt lat="43.30615" lon="-1.28198">
        <ele>350</ele>
        <time>2023-12-21T10:28:18Z</time>
      </trkpt>
      <trkpt lat="43.30613" lon="-1.28242">
        <ele>354</ele>
        <time>2023-12-21T10:28:34Z</time>
      </trkpt>
      <trkpt lat="43.30607" lon="-1.28272">
        <ele>357</ele>
        <time>2023-12-21T10:28:46Z</time>
      </trkpt>
      <trkpt lat="43.30603" lon="-1.28274">
        <ele>359</ele>
        <time>2023-12-21T10:28:48Z</time>
      </trkpt>
      <trkpt lat="43.30596" lon="-1.28266">
        <ele>360</ele>
        <time>2023-12-21T10:28:52Z</time>
      </trkpt>
      <trkpt lat="43.30567" lon="-1.28212">
        <ele>366</ele>
        <time>2023-12-21T10:29:17Z</time>
      </trkpt>
      <trkpt lat="43.30553" lon="-1.28176">
        <ele>368</ele>
        <time>2023-12-21T10:29:32Z</time>
      </trkpt>
      <trkpt lat="43.30545" lon="-1.28164">
        <ele>369</ele>
        <time>2023-12-21T10:29:38Z</time>
      </trkpt>
      <trkpt lat="43.30534" lon="-1.28155">
        <ele>370</ele>
        <time>2023-12-21T10:29:44Z</time>
      </trkpt>
      <trkpt lat="43.30528" lon="-1.28175">
        <ele>375</ele>
        <time>2023-12-21T10:29:52Z</time>
      </trkpt>
      <trkpt lat="43.30521" lon="-1.2824">
        <ele>387</ele>
        <time>2023-12-21T10:30:16Z</time>
      </trkpt>
      <trkpt lat="43.30506" lon="-1.2829">
        <ele>398</ele>
        <time>2023-12-21T10:30:36Z</time>
      </trkpt>
      <trkpt lat="43.30498" lon="-1.28354">
        <ele>407</ele>
        <time>2023-12-21T10:30:59Z</time>
      </trkpt>
      <trkpt lat="43.3049" lon="-1.28382">
        <ele>411</ele>
        <time>2023-12-21T10:31:10Z</time>
      </trkpt>
      <trkpt lat="43.30486" lon="-1.28386">
        <ele>412</ele>
        <time>2023-12-21T10:31:13Z</time>
      </trkpt>
      <trkpt lat="43.3048" lon="-1.28384">
        <ele>414</ele>
        <time>2023-12-21T10:31:16Z</time>
      </trkpt>
      <trkpt lat="43.30465" lon="-1.28366">
        <ele>417</ele>
        <time>2023-12-21T10:31:26Z</time>
      </trkpt>
      <trkpt lat="43.30449" lon="-1.28357">
        <ele>421</ele>
        <time>2023-12-21T10:31:34Z</time>
      </trkpt>
      <trkpt lat="43.30406" lon="-1.28361">
        <ele>431</ele>
        <time>2023-12-21T10:31:56Z</time>
      </trkpt>
      <trkpt lat="43.30387" lon="-1.28373">
        <ele>433</ele>
        <time>2023-12-21T10:32:06Z</time>
      </trkpt>
      <trkpt lat="43.30365" lon="-1.28412">
        <ele>440</ele>
        <time>2023-12-21T10:32:24Z</time>
      </trkpt>
      <trkpt lat="43.30334" lon="-1.28485">
        <ele>453</ele>
        <time>2023-12-21T10:32:55Z</time>
      </trkpt>
      <trkpt lat="43.30294" lon="-1.28543">
        <ele>465</ele>
        <time>2023-12-21T10:33:24Z</time>
      </trkpt>
      <trkpt lat="43.30229" lon="-1.28601">
        <ele>483</ele>
        <time>2023-12-21T10:34:03Z</time>
      </trkpt>
      <trkpt lat="43.30212" lon="-1.28612">
        <ele>488</ele>
        <time>2023-12-21T10:34:12Z</time>
      </trkpt>
      <trkpt lat="43.30193" lon="-1.28617">
        <ele>494</ele>
        <time>2023-12-21T10:34:22Z</time>
      </trkpt>
      <trkpt lat="43.30183" lon="-1.28623">
        <ele>497</ele>
        <time>2023-12-21T10:34:28Z</time>
      </trkpt>
      <trkpt lat="43.30176" lon="-1.28622">
        <ele>499</ele>
        <time>2023-12-21T10:34:31Z</time>
      </trkpt>
      <trkpt lat="43.30162" lon="-1.28615">
        <ele>502</ele>
        <time>2023-12-21T10:34:38Z</time>
      </trkpt>
      <trkpt lat="43.30128" lon="-1.28586">
        <ele>508</ele>
        <time>2023-12-21T10:34:59Z</time>
      </trkpt>
      <trkpt lat="43.30105" lon="-1.28573">
        <ele>512</ele>
        <time>2023-12-21T10:35:11Z</time>
      </trkpt>
      <trkpt lat="43.30063" lon="-1.28557">
        <ele>519</ele>
        <time>2023-12-21T10:35:33Z</time>
      </trkpt>
      <trkpt lat="43.30037" lon="-1.28543">
        <ele>523</ele>
        <time>2023-12-21T10:35:47Z</time>
      </trkpt>
      <trkpt lat="43.30022" lon="-1.28543">
        <ele>527</ele>
        <time>2023-12-21T10:35:54Z</time>
      </trkpt>
      <trkpt lat="43.30014" lon="-1.28539">
        <ele>528</ele>
        <time>2023-12-21T10:35:59Z</time>
      </trkpt>
      <trkpt lat="43.30006" lon="-1.28525">
        <ele>527</ele>
        <time>2023-12-21T10:36:05Z</time>
      </trkpt>
      <trkpt lat="43.29971" lon="-1.2844">
        <ele>525</ele>
        <time>2023-12-21T10:36:41Z</time>
      </trkpt>
      <trkpt lat="43.29927" lon="-1.28351">
        <ele>519</ele>
        <time>2023-12-21T10:37:20Z</time>
      </trkpt>
      <trkpt lat="43.29916" lon="-1.28341">
        <ele>519</ele>
        <time>2023-12-21T10:37:26Z</time>
      </trkpt>
      <trkpt lat="43.29885" lon="-1.28336">
        <ele>530</ele>
        <time>2023-12-21T10:37:42Z</time>
      </trkpt>
      <trkpt lat="43.29857" lon="-1.28313">
        <ele>538</ele>
        <time>2023-12-21T10:37:58Z</time>
      </trkpt>
      <trkpt lat="43.29852" lon="-1.28305">
        <ele>539</ele>
        <time>2023-12-21T10:38:02Z</time>
      </trkpt>
      <trkpt lat="43.2987" lon="-1.28276">
        <ele>528</ele>
        <time>2023-12-21T10:38:16Z</time>
      </trkpt>
      <trkpt lat="43.29874" lon="-1.28244">
        <ele>523</ele>
        <time>2023-12-21T10:38:28Z</time>
      </trkpt>
      <trkpt lat="43.29872" lon="-1.28223">
        <ele>523</ele>
        <time>2023-12-21T10:38:36Z</time>
      </trkpt>
      <trkpt lat="43.29861" lon="-1.28174">
        <ele>524</ele>
        <time>2023-12-21T10:38:54Z</time>
      </trkpt>
      <trkpt lat="43.29852" lon="-1.2815">
        <ele>525</ele>
        <time>2023-12-21T10:39:04Z</time>
      </trkpt>
      <trkpt lat="43.29808" lon="-1.28105">
        <ele>538</ele>
        <time>2023-12-21T10:39:32Z</time>
      </trkpt>
      <trkpt lat="43.29767" lon="-1.28044">
        <ele>549</ele>
        <time>2023-12-21T10:40:02Z</time>
      </trkpt>
      <trkpt lat="43.29758" lon="-1.28038">
        <ele>552</ele>
        <time>2023-12-21T10:40:07Z</time>
      </trkpt>
      <trkpt lat="43.29743" lon="-1.2802">
        <ele>555</ele>
        <time>2023-12-21T10:40:17Z</time>
      </trkpt>
      <trkpt lat="43.29726" lon="-1.27978">
        <ele>555</ele>
        <time>2023-12-21T10:40:34Z</time>
      </trkpt>
      <trkpt lat="43.29705" lon="-1.2795">
        <ele>557</ele>
        <time>2023-12-21T10:40:49Z</time>
      </trkpt>
      <trkpt lat="43.29693" lon="-1.27925">
        <ele>556</ele>
        <time>2023-12-21T10:41:00Z</time>
      </trkpt>
      <trkpt lat="43.29667" lon="-1.27892">
        <ele>557</ele>
        <time>2023-12-21T10:41:17Z</time>
      </trkpt>
      <trkpt lat="43.29651" lon="-1.27882">
        <ele>561</ele>
        <time>2023-12-21T10:41:26Z</time>
      </trkpt>
      <trkpt lat="43.29623" lon="-1.27881">
        <ele>571</ele>
        <time>2023-12-21T10:41:40Z</time>
      </trkpt>
      <trkpt lat="43.29611" lon="-1.27877">
        <ele>575</ele>
        <time>2023-12-21T10:41:46Z</time>
      </trkpt>
      <trkpt lat="43.29584" lon="-1.27832">
        <ele>576</ele>
        <time>2023-12-21T10:42:08Z</time>
      </trkpt>
      <trkpt lat="43.29554" lon="-1.27808">
        <ele>584</ele>
        <time>2023-12-21T10:42:25Z</time>
      </trkpt>
      <trkpt lat="43.29547" lon="-1.27797">
        <ele>585</ele>
        <time>2023-12-21T10:42:30Z</time>
      </trkpt>
      <trkpt lat="43.29535" lon="-1.27772">
        <ele>584</ele>
        <time>2023-12-21T10:42:41Z</time>
      </trkpt>
      <trkpt lat="43.29523" lon="-1.27728">
        <ele>578</ele>
        <time>2023-12-21T10:42:58Z</time>
      </trkpt>
      <trkpt lat="43.29518" lon="-1.27693">
        <ele>571</ele>
        <time>2023-12-21T10:43:11Z</time>
      </trkpt>
      <trkpt lat="43.29511" lon="-1.27674">
        <ele>570</ele>
        <time>2023-12-21T10:43:19Z</time>
      </trkpt>
      <trkpt lat="43.29488" lon="-1.27643">
        <ele>576</ele>
        <time>2023-12-21T10:43:35Z</time>
      </trkpt>
      <trkpt lat="43.29462" lon="-1.27622">
        <ele>587</ele>
        <time>2023-12-21T10:43:50Z</time>
      </trkpt>
      <trkpt lat="43.29456" lon="-1.27612">
        <ele>588</ele>
        <time>2023-12-21T10:43:55Z</time>
      </trkpt>
      <trkpt lat="43.29459" lon="-1.2759">
        <ele>582</ele>
        <time>2023-12-21T10:44:03Z</time>
      </trkpt>
      <trkpt lat="43.29455" lon="-1.27545">
        <ele>576</ele>
        <time>2023-12-21T10:44:20Z</time>
      </trkpt>
      <trkpt lat="43.2945" lon="-1.27515">
        <ele>574</ele>
        <time>2023-12-21T10:44:31Z</time>
      </trkpt>
      <trkpt lat="43.29434" lon="-1.27456">
        <ele>571</ele>
        <time>2023-12-21T10:44:54Z</time>
      </trkpt>
      <trkpt lat="43.29407" lon="-1.27405">
        <ele>569</ele>
        <time>2023-12-21T10:45:17Z</time>
      </trkpt>
      <trkpt lat="43.29388" lon="-1.27383">
        <ele>567</ele>
        <time>2023-12-21T10:45:29Z</time>
      </trkpt>
      <trkpt lat="43.29355" lon="-1.27371">
        <ele>573</ele>
        <time>2023-12-21T10:45:46Z</time>
      </trkpt>
      <trkpt lat="43.29328" lon="-1.27348">
        <ele>575</ele>
        <time>2023-12-21T10:46:02Z</time>
      </trkpt>
      <trkpt lat="43.29316" lon="-1.27321">
        <ele>573</ele>
        <time>2023-12-21T10:46:14Z</time>
      </trkpt>
      <trkpt lat="43.29313" lon="-1.27292">
        <ele>569</ele>
        <time>2023-12-21T10:46:25Z</time>
      </trkpt>
      <trkpt lat="43.29303" lon="-1.27268">
        <ele>570</ele>
        <time>2023-12-21T10:46:35Z</time>
      </trkpt>
      <trkpt lat="43.29287" lon="-1.27258">
        <ele>574</ele>
        <time>2023-12-21T10:46:43Z</time>
      </trkpt>
      <trkpt lat="43.29268" lon="-1.27251">
        <ele>580</ele>
        <time>2023-12-21T10:46:53Z</time>
      </trkpt>
      <trkpt lat="43.29257" lon="-1.27255">
        <ele>584</ele>
        <time>2023-12-21T10:46:59Z</time>
      </trkpt>
      <trkpt lat="43.29225" lon="-1.27281">
        <ele>594</ele>
        <time>2023-12-21T10:47:18Z</time>
      </trkpt>
      <trkpt lat="43.29201" lon="-1.27291">
        <ele>600</ele>
        <time>2023-12-21T10:47:30Z</time>
      </trkpt>
      <trkpt lat="43.2919" lon="-1.27291">
        <ele>601</ele>
        <time>2023-12-21T10:47:36Z</time>
      </trkpt>
      <trkpt lat="43.29169" lon="-1.27283">
        <ele>603</ele>
        <time>2023-12-21T10:47:46Z</time>
      </trkpt>
      <trkpt lat="43.29158" lon="-1.27285">
        <ele>603</ele>
        <time>2023-12-21T10:47:52Z</time>
      </trkpt>
      <trkpt lat="43.29136" lon="-1.27297">
        <ele>604</ele>
        <time>2023-12-21T10:48:04Z</time>
      </trkpt>
      <trkpt lat="43.29122" lon="-1.2731">
        <ele>607</ele>
        <time>2023-12-21T10:48:12Z</time>
      </trkpt>
      <trkpt lat="43.29071" lon="-1.27343">
        <ele>614</ele>
        <time>2023-12-21T10:48:41Z</time>
      </trkpt>
      <trkpt lat="43.2905" lon="-1.27353">
        <ele>615</ele>
        <time>2023-12-21T10:48:52Z</time>
      </trkpt>
      <trkpt lat="43.28984" lon="-1.27401">
        <ele>623</ele>
        <time>2023-12-21T10:49:29Z</time>
      </trkpt>
      <trkpt lat="43.2891" lon="-1.27464">
        <ele>625</ele>
        <time>2023-12-21T10:50:13Z</time>
      </trkpt>
      <trkpt lat="43.28836" lon="-1.27515">
        <ele>624</ele>
        <time>2023-12-21T10:50:54Z</time>
      </trkpt>
      <trkpt lat="43.28804" lon="-1.27528">
        <ele>626</ele>
        <time>2023-12-21T10:51:11Z</time>
      </trkpt>
      <trkpt lat="43.28794" lon="-1.27529">
        <ele>626</ele>
        <time>2023-12-21T10:51:16Z</time>
      </trkpt>
      <trkpt lat="43.28729" lon="-1.27511">
        <ele>622</ele>
        <time>2023-12-21T10:51:49Z</time>
      </trkpt>
      <trkpt lat="43.2872" lon="-1.27511">
        <ele>622</ele>
        <time>2023-12-21T10:51:53Z</time>
      </trkpt>
      <trkpt lat="43.28716" lon="-1.27517">
        <ele>623</ele>
        <time>2023-12-21T10:51:56Z</time>
      </trkpt>
      <trkpt lat="43.28721" lon="-1.27524">
        <ele>623</ele>
        <time>2023-12-21T10:52:00Z</time>
      </trkpt>
      <trkpt lat="43.28783" lon="-1.27581">
        <ele>637</ele>
        <time>2023-12-21T10:52:37Z</time>
      </trkpt>
      <trkpt lat="43.28843" lon="-1.27665">
        <ele>653</ele>
        <time>2023-12-21T10:53:20Z</time>
      </trkpt>
      <trkpt lat="43.28877" lon="-1.27702">
        <ele>660</ele>
        <time>2023-12-21T10:53:42Z</time>
      </trkpt>
      <trkpt lat="43.28903" lon="-1.27724">
        <ele>667</ele>
        <time>2023-12-21T10:53:57Z</time>
      </trkpt>
      <trkpt lat="43.28912" lon="-1.27727">
        <ele>671</ele>
        <time>2023-12-21T10:54:02Z</time>
      </trkpt>
      <trkpt lat="43.28933" lon="-1.27746">
        <ele>677</ele>
        <time>2023-12-21T10:54:14Z</time>
      </trkpt>
      <trkpt lat="43.28955" lon="-1.27758">
        <ele>682</ele>
        <time>2023-12-21T10:54:26Z</time>
      </trkpt>
      <trkpt lat="43.28965" lon="-1.27775">
        <ele>682</ele>
        <time>2023-12-21T10:54:34Z</time>
      </trkpt>
      <trkpt lat="43.28978" lon="-1.27785">
        <ele>685</ele>
        <time>2023-12-21T10:54:42Z</time>
      </trkpt>
      <trkpt lat="43.29027" lon="-1.27812">
        <ele>697</ele>
        <time>2023-12-21T10:55:08Z</time>
      </trkpt>
      <trkpt lat="43.29068" lon="-1.27829">
        <ele>708</ele>
        <time>2023-12-21T10:55:29Z</time>
      </trkpt>
      <trkpt lat="43.29132" lon="-1.27871">
        <ele>720</ele>
        <time>2023-12-21T10:56:05Z</time>
      </trkpt>
      <trkpt lat="43.29177" lon="-1.27913">
        <ele>727</ele>
        <time>2023-12-21T10:56:32Z</time>
      </trkpt>
      <trkpt lat="43.29186" lon="-1.27925">
        <ele>728</ele>
        <time>2023-12-21T10:56:38Z</time>
      </trkpt>
      <trkpt lat="43.29225" lon="-1.27958">
        <ele>736</ele>
        <time>2023-12-21T10:57:01Z</time>
      </trkpt>
      <trkpt lat="43.29253" lon="-1.28003">
        <ele>742</ele>
        <time>2023-12-21T10:57:23Z</time>
      </trkpt>
      <trkpt lat="43.29294" lon="-1.28037">
        <ele>743</ele>
        <time>2023-12-21T10:57:47Z</time>
      </trkpt>
      <trkpt lat="43.29316" lon="-1.28061">
        <ele>747</ele>
        <time>2023-12-21T10:58:01Z</time>
      </trkpt>
      <trkpt lat="43.2934" lon="-1.28111">
        <ele>750</ele>
        <time>2023-12-21T10:58:23Z</time>
      </trkpt>
      <trkpt lat="43.29346" lon="-1.28117">
        <ele>749</ele>
        <time>2023-12-21T10:58:27Z</time>
      </trkpt>
      <trkpt lat="43.29364" lon="-1.28149">
        <ele>748</ele>
        <time>2023-12-21T10:58:41Z</time>
      </trkpt>
      <trkpt lat="43.29379" lon="-1.28166">
        <ele>749</ele>
        <time>2023-12-21T10:58:51Z</time>
      </trkpt>
      <trkpt lat="43.29389" lon="-1.28196">
        <ele>752</ele>
        <time>2023-12-21T10:59:03Z</time>
      </trkpt>
      <trkpt lat="43.29398" lon="-1.28246">
        <ele>757</ele>
        <time>2023-12-21T10:59:22Z</time>
      </trkpt>
      <trkpt lat="43.29398" lon="-1.28267">
        <ele>759</ele>
        <time>2023-12-21T10:59:29Z</time>
      </trkpt>
      <trkpt lat="43.29407" lon="-1.28295">
        <ele>762</ele>
        <time>2023-12-21T10:59:41Z</time>
      </trkpt>
      <trkpt lat="43.29407" lon="-1.28344">
        <ele>766</ele>
        <time>2023-12-21T10:59:58Z</time>
      </trkpt>
      <trkpt lat="43.29422" lon="-1.28397">
        <ele>772</ele>
        <time>2023-12-21T11:00:19Z</time>
      </trkpt>
      <trkpt lat="43.29419" lon="-1.28444">
        <ele>777</ele>
        <time>2023-12-21T11:00:36Z</time>
      </trkpt>
      <trkpt lat="43.2942" lon="-1.2847">
        <ele>778</ele>
        <time>2023-12-21T11:00:46Z</time>
      </trkpt>
      <trkpt lat="43.29455" lon="-1.28565">
        <ele>778</ele>
        <time>2023-12-21T11:01:25Z</time>
      </trkpt>
      <trkpt lat="43.29461" lon="-1.28605">
        <ele>784</ele>
        <time>2023-12-21T11:01:39Z</time>
      </trkpt>
      <trkpt lat="43.2946" lon="-1.28649">
        <ele>791</ele>
        <time>2023-12-21T11:01:55Z</time>
      </trkpt>
      <trkpt lat="43.29467" lon="-1.28686">
        <ele>799</ele>
        <time>2023-12-21T11:02:09Z</time>
      </trkpt>
      <trkpt lat="43.29466" lon="-1.28717">
        <ele>807</ele>
        <time>2023-12-21T11:02:21Z</time>
      </trkpt>
      <trkpt lat="43.29469" lon="-1.28733">
        <ele>812</ele>
        <time>2023-12-21T11:02:27Z</time>
      </trkpt>
      <trkpt lat="43.29466" lon="-1.28779">
        <ele>823</ele>
        <time>2023-12-21T11:02:44Z</time>
      </trkpt>
      <trkpt lat="43.29474" lon="-1.28826">
        <ele>835</ele>
        <time>2023-12-21T11:03:01Z</time>
      </trkpt>
      <trkpt lat="43.2946" lon="-1.2888">
        <ele>839</ele>
        <time>2023-12-21T11:03:22Z</time>
      </trkpt>
      <trkpt lat="43.29456" lon="-1.28884">
        <ele>839</ele>
        <time>2023-12-21T11:03:24Z</time>
      </trkpt>
      <trkpt lat="43.29447" lon="-1.28884">
        <ele>838</ele>
        <time>2023-12-21T11:03:29Z</time>
      </trkpt>
      <trkpt lat="43.29442" lon="-1.28912">
        <ele>840</ele>
        <time>2023-12-21T11:03:39Z</time>
      </trkpt>
      <trkpt lat="43.29403" lon="-1.28953">
        <ele>832</ele>
        <time>2023-12-21T11:04:04Z</time>
      </trkpt>
      <trkpt lat="43.29384" lon="-1.28999">
        <ele>831</ele>
        <time>2023-12-21T11:04:23Z</time>
      </trkpt>
      <trkpt lat="43.2934" lon="-1.29052">
        <ele>835</ele>
        <time>2023-12-21T11:04:53Z</time>
      </trkpt>
      <trkpt lat="43.2931" lon="-1.29069">
        <ele>835</ele>
        <time>2023-12-21T11:05:09Z</time>
      </trkpt>
      <trkpt lat="43.2929" lon="-1.29093">
        <ele>837</ele>
        <time>2023-12-21T11:05:22Z</time>
      </trkpt>
      <trkpt lat="43.29274" lon="-1.29106">
        <ele>837</ele>
        <time>2023-12-21T11:05:31Z</time>
      </trkpt>
      <trkpt lat="43.29236" lon="-1.29147">
        <ele>845</ele>
        <time>2023-12-21T11:05:56Z</time>
      </trkpt>
      <trkpt lat="43.29184" lon="-1.29184">
        <ele>854</ele>
        <time>2023-12-21T11:06:25Z</time>
      </trkpt>
      <trkpt lat="43.29153" lon="-1.29226">
        <ele>860</ele>
        <time>2023-12-21T11:06:47Z</time>
      </trkpt>
      <trkpt lat="43.29134" lon="-1.29258">
        <ele>867</ele>
        <time>2023-12-21T11:07:02Z</time>
      </trkpt>
      <trkpt lat="43.29101" lon="-1.29298">
        <ele>873</ele>
        <time>2023-12-21T11:07:24Z</time>
      </trkpt>
      <trkpt lat="43.29096" lon="-1.29298">
        <ele>874</ele>
        <time>2023-12-21T11:07:26Z</time>
      </trkpt>
      <trkpt lat="43.29091" lon="-1.29285">
        <ele>876</ele>
        <time>2023-12-21T11:07:32Z</time>
      </trkpt>
      <trkpt lat="43.29094" lon="-1.2926">
        <ele>875</ele>
        <time>2023-12-21T11:07:41Z</time>
      </trkpt>
      <trkpt lat="43.29091" lon="-1.29248">
        <ele>876</ele>
        <time>2023-12-21T11:07:45Z</time>
      </trkpt>
      <trkpt lat="43.29086" lon="-1.29241">
        <ele>874</ele>
        <time>2023-12-21T11:07:49Z</time>
      </trkpt>
      <trkpt lat="43.2908" lon="-1.29238">
        <ele>873</ele>
        <time>2023-12-21T11:07:52Z</time>
      </trkpt>
      <trkpt lat="43.29072" lon="-1.29245">
        <ele>873</ele>
        <time>2023-12-21T11:07:57Z</time>
      </trkpt>
      <trkpt lat="43.29062" lon="-1.29264">
        <ele>873</ele>
        <time>2023-12-21T11:08:06Z</time>
      </trkpt>
      <trkpt lat="43.29063" lon="-1.2927">
        <ele>873</ele>
        <time>2023-12-21T11:08:08Z</time>
      </trkpt>
      <trkpt lat="43.29068" lon="-1.2927">
        <ele>874</ele>
        <time>2023-12-21T11:08:10Z</time>
      </trkpt>
      <trkpt lat="43.29067" lon="-1.29273">
        <ele>874</ele>
        <time>2023-12-21T11:08:11Z</time>
      </trkpt>
      <trkpt lat="43.29052" lon="-1.29294">
        <ele>871</ele>
        <time>2023-12-21T11:08:22Z</time>
      </trkpt>
      <trkpt lat="43.29043" lon="-1.29357">
        <ele>870</ele>
        <time>2023-12-21T11:08:46Z</time>
      </trkpt>
      <trkpt lat="43.29019" lon="-1.29419">
        <ele>869</ele>
        <time>2023-12-21T11:09:11Z</time>
      </trkpt>
      <trkpt lat="43.29007" lon="-1.29434">
        <ele>870</ele>
        <time>2023-12-21T11:09:19Z</time>
      </trkpt>
      <trkpt lat="43.2899" lon="-1.29477">
        <ele>864</ele>
        <time>2023-12-21T11:09:37Z</time>
      </trkpt>
      <trkpt lat="43.28935" lon="-1.29551">
        <ele>848</ele>
        <time>2023-12-21T11:10:16Z</time>
      </trkpt>
      <trkpt lat="43.28908" lon="-1.2957">
        <ele>846</ele>
        <time>2023-12-21T11:10:31Z</time>
      </trkpt>
      <trkpt lat="43.28883" lon="-1.29593">
        <ele>844</ele>
        <time>2023-12-21T11:10:46Z</time>
      </trkpt>
      <trkpt lat="43.28842" lon="-1.29615">
        <ele>837</ele>
        <time>2023-12-21T11:11:08Z</time>
      </trkpt>
      <trkpt lat="43.28825" lon="-1.29617">
        <ele>834</ele>
        <time>2023-12-21T11:11:16Z</time>
      </trkpt>
      <trkpt lat="43.2879" lon="-1.29611">
        <ele>828</ele>
        <time>2023-12-21T11:11:34Z</time>
      </trkpt>
      <trkpt lat="43.28722" lon="-1.29613">
        <ele>817</ele>
        <time>2023-12-21T11:12:08Z</time>
      </trkpt>
      <trkpt lat="43.28705" lon="-1.29618">
        <ele>816</ele>
        <time>2023-12-21T11:12:17Z</time>
      </trkpt>
      <trkpt lat="43.28682" lon="-1.29646">
        <ele>814</ele>
        <time>2023-12-21T11:12:32Z</time>
      </trkpt>
      <trkpt lat="43.28663" lon="-1.29677">
        <ele>809</ele>
        <time>2023-12-21T11:12:47Z</time>
      </trkpt>
      <trkpt lat="43.28656" lon="-1.29699">
        <ele>804</ele>
        <time>2023-12-21T11:12:56Z</time>
      </trkpt>
      <trkpt lat="43.28654" lon="-1.29737">
        <ele>796</ele>
        <time>2023-12-21T11:13:10Z</time>
      </trkpt>
      <trkpt lat="43.28658" lon="-1.29749">
        <ele>794</ele>
        <time>2023-12-21T11:13:14Z</time>
      </trkpt>
      <trkpt lat="43.28676" lon="-1.29781">
        <ele>789</ele>
        <time>2023-12-21T11:13:29Z</time>
      </trkpt>
      <trkpt lat="43.28683" lon="-1.29818">
        <ele>781</ele>
        <time>2023-12-21T11:13:43Z</time>
      </trkpt>
      <trkpt lat="43.28711" lon="-1.29873">
        <ele>772</ele>
        <time>2023-12-21T11:14:08Z</time>
      </trkpt>
      <trkpt lat="43.28751" lon="-1.29982">
        <ele>756</ele>
        <time>2023-12-21T11:14:52Z</time>
      </trkpt>
      <trkpt lat="43.28765" lon="-1.30001">
        <ele>752</ele>
        <time>2023-12-21T11:15:02Z</time>
      </trkpt>
      <trkpt lat="43.28827" lon="-1.30067">
        <ele>737</ele>
        <time>2023-12-21T11:15:41Z</time>
      </trkpt>
      <trkpt lat="43.28847" lon="-1.30079">
        <ele>734</ele>
        <time>2023-12-21T11:15:52Z</time>
      </trkpt>
      <trkpt lat="43.2889" lon="-1.30113">
        <ele>722</ele>
        <time>2023-12-21T11:16:17Z</time>
      </trkpt>
      <trkpt lat="43.28944" lon="-1.30131">
        <ele>713</ele>
        <time>2023-12-21T11:16:45Z</time>
      </trkpt>
      <trkpt lat="43.28959" lon="-1.30139">
        <ele>710</ele>
        <time>2023-12-21T11:16:53Z</time>
      </trkpt>
      <trkpt lat="43.28975" lon="-1.30141">
        <ele>709</ele>
        <time>2023-12-21T11:17:01Z</time>
      </trkpt>
      <trkpt lat="43.29013" lon="-1.30139">
        <ele>707</ele>
        <time>2023-12-21T11:17:20Z</time>
      </trkpt>
      <trkpt lat="43.29051" lon="-1.30124">
        <ele>709</ele>
        <time>2023-12-21T11:17:40Z</time>
      </trkpt>
      <trkpt lat="43.29069" lon="-1.30123">
        <ele>708</ele>
        <time>2023-12-21T11:17:49Z</time>
      </trkpt>
      <trkpt lat="43.29112" lon="-1.30135">
        <ele>701</ele>
        <time>2023-12-21T11:18:11Z</time>
      </trkpt>
      <trkpt lat="43.29145" lon="-1.30148">
        <ele>696</ele>
        <time>2023-12-21T11:18:28Z</time>
      </trkpt>
      <trkpt lat="43.29175" lon="-1.30153">
        <ele>694</ele>
        <time>2023-12-21T11:18:43Z</time>
      </trkpt>
      <trkpt lat="43.29202" lon="-1.30168">
        <ele>689</ele>
        <time>2023-12-21T11:18:57Z</time>
      </trkpt>
      <trkpt lat="43.2922" lon="-1.30172">
        <ele>687</ele>
        <time>2023-12-21T11:19:07Z</time>
      </trkpt>
      <trkpt lat="43.29236" lon="-1.30184">
        <ele>684</ele>
        <time>2023-12-21T11:19:16Z</time>
      </trkpt>
      <trkpt lat="43.29249" lon="-1.30202">
        <ele>679</ele>
        <time>2023-12-21T11:19:25Z</time>
      </trkpt>
      <trkpt lat="43.29259" lon="-1.30248">
        <ele>668</ele>
        <time>2023-12-21T11:19:42Z</time>
      </trkpt>
      <trkpt lat="43.29279" lon="-1.3028">
        <ele>657</ele>
        <time>2023-12-21T11:19:58Z</time>
      </trkpt>
      <trkpt lat="43.29293" lon="-1.30313">
        <ele>649</ele>
        <time>2023-12-21T11:20:12Z</time>
      </trkpt>
      <trkpt lat="43.29303" lon="-1.30391">
        <ele>631</ele>
        <time>2023-12-21T11:20:40Z</time>
      </trkpt>
      <trkpt lat="43.29308" lon="-1.30492">
        <ele>609</ele>
        <time>2023-12-21T11:21:17Z</time>
      </trkpt>
      <trkpt lat="43.29327" lon="-1.30577">
        <ele>587</ele>
        <time>2023-12-21T11:21:50Z</time>
      </trkpt>
      <trkpt lat="43.29337" lon="-1.30588">
        <ele>583</ele>
        <time>2023-12-21T11:21:56Z</time>
      </trkpt>
      <trkpt lat="43.29355" lon="-1.30591">
        <ele>580</ele>
        <time>2023-12-21T11:22:05Z</time>
      </trkpt>
      <trkpt lat="43.29406" lon="-1.3059">
        <ele>573</ele>
        <time>2023-12-21T11:22:31Z</time>
      </trkpt>
      <trkpt lat="43.29434" lon="-1.30621">
        <ele>557</ele>
        <time>2023-12-21T11:22:49Z</time>
      </trkpt>
      <trkpt lat="43.29452" lon="-1.30626">
        <ele>551</ele>
        <time>2023-12-21T11:22:58Z</time>
      </trkpt>
      <trkpt lat="43.29468" lon="-1.30635">
        <ele>545</ele>
        <time>2023-12-21T11:23:07Z</time>
      </trkpt>
      <trkpt lat="43.29494" lon="-1.30636">
        <ele>538</ele>
        <time>2023-12-21T11:23:20Z</time>
      </trkpt>
      <trkpt lat="43.29515" lon="-1.30666">
        <ele>527</ele>
        <time>2023-12-21T11:23:35Z</time>
      </trkpt>
      <trkpt lat="43.29524" lon="-1.30669">
        <ele>524</ele>
        <time>2023-12-21T11:23:39Z</time>
      </trkpt>
      <trkpt lat="43.29536" lon="-1.30667">
        <ele>522</ele>
        <time>2023-12-21T11:23:45Z</time>
      </trkpt>
      <trkpt lat="43.29548" lon="-1.3067">
        <ele>518</ele>
        <time>2023-12-21T11:23:52Z</time>
      </trkpt>
      <trkpt lat="43.29569" lon="-1.30681">
        <ele>511</ele>
        <time>2023-12-21T11:24:03Z</time>
      </trkpt>
      <trkpt lat="43.29575" lon="-1.30689">
        <ele>508</ele>
        <time>2023-12-21T11:24:07Z</time>
      </trkpt>
      <trkpt lat="43.29578" lon="-1.30719">
        <ele>502</ele>
        <time>2023-12-21T11:24:18Z</time>
      </trkpt>
      <trkpt lat="43.29584" lon="-1.30743">
        <ele>497</ele>
        <time>2023-12-21T11:24:27Z</time>
      </trkpt>
      <trkpt lat="43.29584" lon="-1.30756">
        <ele>494</ele>
        <time>2023-12-21T11:24:32Z</time>
      </trkpt>
      <trkpt lat="43.29565" lon="-1.30823">
        <ele>483</ele>
        <time>2023-12-21T11:24:58Z</time>
      </trkpt>
      <trkpt lat="43.29536" lon="-1.3087">
        <ele>478</ele>
        <time>2023-12-21T11:25:21Z</time>
      </trkpt>
      <trkpt lat="43.29533" lon="-1.3091">
        <ele>468</ele>
        <time>2023-12-21T11:25:35Z</time>
      </trkpt>
      <trkpt lat="43.29518" lon="-1.30956">
        <ele>464</ele>
        <time>2023-12-21T11:25:54Z</time>
      </trkpt>
      <trkpt lat="43.29501" lon="-1.3099">
        <ele>461</ele>
        <time>2023-12-21T11:26:09Z</time>
      </trkpt>
      <trkpt lat="43.29495" lon="-1.31031">
        <ele>459</ele>
        <time>2023-12-21T11:26:24Z</time>
      </trkpt>
      <trkpt lat="43.29496" lon="-1.31057">
        <ele>459</ele>
        <time>2023-12-21T11:26:33Z</time>
      </trkpt>
      <trkpt lat="43.29502" lon="-1.31076">
        <ele>459</ele>
        <time>2023-12-21T11:26:41Z</time>
      </trkpt>
      <trkpt lat="43.29536" lon="-1.31109">
        <ele>452</ele>
        <time>2023-12-21T11:27:02Z</time>
      </trkpt>
      <trkpt lat="43.2954" lon="-1.31121">
        <ele>451</ele>
        <time>2023-12-21T11:27:07Z</time>
      </trkpt>
      <trkpt lat="43.2954" lon="-1.3113">
        <ele>450</ele>
        <time>2023-12-21T11:27:10Z</time>
      </trkpt>
      <trkpt lat="43.29533" lon="-1.31145">
        <ele>451</ele>
        <time>2023-12-21T11:27:16Z</time>
      </trkpt>
      <trkpt lat="43.29504" lon="-1.31186">
        <ele>454</ele>
        <time>2023-12-21T11:27:37Z</time>
      </trkpt>
      <trkpt lat="43.29479" lon="-1.31244">
        <ele>451</ele>
        <time>2023-12-21T11:28:02Z</time>
      </trkpt>
      <trkpt lat="43.29457" lon="-1.31282">
        <ele>452</ele>
        <time>2023-12-21T11:28:19Z</time>
      </trkpt>
      <trkpt lat="43.29455" lon="-1.31293">
        <ele>451</ele>
        <time>2023-12-21T11:28:23Z</time>
      </trkpt>
      <trkpt lat="43.29456" lon="-1.31309">
        <ele>450</ele>
        <time>2023-12-21T11:28:29Z</time>
      </trkpt>
      <trkpt lat="43.29465" lon="-1.31332">
        <ele>449</ele>
        <time>2023-12-21T11:28:39Z</time>
      </trkpt>
      <trkpt lat="43.29482" lon="-1.3135">
        <ele>452</ele>
        <time>2023-12-21T11:28:50Z</time>
      </trkpt>
      <trkpt lat="43.29483" lon="-1.31378">
        <ele>456</ele>
        <time>2023-12-21T11:29:00Z</time>
      </trkpt>
      <trkpt lat="43.29497" lon="-1.31434">
        <ele>469</ele>
        <time>2023-12-21T11:29:21Z</time>
      </trkpt>
      <trkpt lat="43.29517" lon="-1.31478">
        <ele>481</ele>
        <time>2023-12-21T11:29:40Z</time>
      </trkpt>
      <trkpt lat="43.29534" lon="-1.31556">
        <ele>508</ele>
        <time>2023-12-21T11:30:10Z</time>
      </trkpt>
      <trkpt lat="43.29539" lon="-1.3164">
        <ele>534</ele>
        <time>2023-12-21T11:30:41Z</time>
      </trkpt>
      <trkpt lat="43.29543" lon="-1.31652">
        <ele>539</ele>
        <time>2023-12-21T11:30:45Z</time>
      </trkpt>
      <trkpt lat="43.29552" lon="-1.31666">
        <ele>547</ele>
        <time>2023-12-21T11:30:52Z</time>
      </trkpt>
      <trkpt lat="43.29595" lon="-1.31704">
        <ele>562</ele>
        <time>2023-12-21T11:31:18Z</time>
      </trkpt>
      <trkpt lat="43.29623" lon="-1.31718">
        <ele>562</ele>
        <time>2023-12-21T11:31:33Z</time>
      </trkpt>
      <trkpt lat="43.29636" lon="-1.31728">
        <ele>563</ele>
        <time>2023-12-21T11:31:40Z</time>
      </trkpt>
      <trkpt lat="43.29688" lon="-1.3175">
        <ele>555</ele>
        <time>2023-12-21T11:32:07Z</time>
      </trkpt>
      <trkpt lat="43.29714" lon="-1.31754">
        <ele>544</ele>
        <time>2023-12-21T11:32:21Z</time>
      </trkpt>
      <trkpt lat="43.2973" lon="-1.31762">
        <ele>536</ele>
        <time>2023-12-21T11:32:29Z</time>
      </trkpt>
      <trkpt lat="43.29743" lon="-1.3177">
        <ele>530</ele>
        <time>2023-12-21T11:32:36Z</time>
      </trkpt>
      <trkpt lat="43.2975" lon="-1.31783">
        <ele>526</ele>
        <time>2023-12-21T11:32:42Z</time>
      </trkpt>
      <trkpt lat="43.29766" lon="-1.31793">
        <ele>520</ele>
        <time>2023-12-21T11:32:51Z</time>
      </trkpt>
      <trkpt lat="43.29782" lon="-1.31789">
        <ele>516</ele>
        <time>2023-12-21T11:32:59Z</time>
      </trkpt>
      <trkpt lat="43.29798" lon="-1.31793">
        <ele>512</ele>
        <time>2023-12-21T11:33:07Z</time>
      </trkpt>
      <trkpt lat="43.2986" lon="-1.31831">
        <ele>502</ele>
        <time>2023-12-21T11:33:41Z</time>
      </trkpt>
      <trkpt lat="43.29891" lon="-1.3187">
        <ele>488</ele>
        <time>2023-12-21T11:34:02Z</time>
      </trkpt>
      <trkpt lat="43.29915" lon="-1.31874">
        <ele>484</ele>
        <time>2023-12-21T11:34:14Z</time>
      </trkpt>
      <trkpt lat="43.29906" lon="-1.31936">
        <ele>470</ele>
        <time>2023-12-21T11:34:37Z</time>
      </trkpt>
      <trkpt lat="43.29906" lon="-1.31995">
        <ele>453</ele>
        <time>2023-12-21T11:34:59Z</time>
      </trkpt>
      <trkpt lat="43.29914" lon="-1.32029">
        <ele>444</ele>
        <time>2023-12-21T11:35:12Z</time>
      </trkpt>
      <trkpt lat="43.29908" lon="-1.32084">
        <ele>429</ele>
        <time>2023-12-21T11:35:32Z</time>
      </trkpt>
      <trkpt lat="43.29907" lon="-1.32124">
        <ele>419</ele>
        <time>2023-12-21T11:35:47Z</time>
      </trkpt>
      <trkpt lat="43.29913" lon="-1.32152">
        <ele>413</ele>
        <time>2023-12-21T11:35:57Z</time>
      </trkpt>
      <trkpt lat="43.29928" lon="-1.32176">
        <ele>403</ele>
        <time>2023-12-21T11:36:09Z</time>
      </trkpt>
      <trkpt lat="43.29923" lon="-1.32196">
        <ele>400</ele>
        <time>2023-12-21T11:36:16Z</time>
      </trkpt>
      <trkpt lat="43.29926" lon="-1.32242">
        <ele>388</ele>
        <time>2023-12-21T11:36:33Z</time>
      </trkpt>
      <trkpt lat="43.29927" lon="-1.32334">
        <ele>371</ele>
        <time>2023-12-21T11:37:07Z</time>
      </trkpt>
      <trkpt lat="43.29929" lon="-1.32344">
        <ele>368</ele>
        <time>2023-12-21T11:37:11Z</time>
      </trkpt>
      <trkpt lat="43.2994" lon="-1.32332">
        <ele>367</ele>
        <time>2023-12-21T11:37:18Z</time>
      </trkpt>
      <trkpt lat="43.29955" lon="-1.32307">
        <ele>367</ele>
        <time>2023-12-21T11:37:29Z</time>
      </trkpt>
      <trkpt lat="43.29964" lon="-1.32281">
        <ele>367</ele>
        <time>2023-12-21T11:37:40Z</time>
      </trkpt>
      <trkpt lat="43.29967" lon="-1.32254">
        <ele>370</ele>
        <time>2023-12-21T11:37:50Z</time>
      </trkpt>
      <trkpt lat="43.29976" lon="-1.3224">
        <ele>370</ele>
        <time>2023-12-21T11:37:57Z</time>
      </trkpt>
      <trkpt lat="43.29996" lon="-1.32223">
        <ele>366</ele>
        <time>2023-12-21T11:38:08Z</time>
      </trkpt>
      <trkpt lat="43.30045" lon="-1.32157">
        <ele>364</ele>
        <time>2023-12-21T11:38:43Z</time>
      </trkpt>
      <trkpt lat="43.30055" lon="-1.32154">
        <ele>362</ele>
        <time>2023-12-21T11:38:48Z</time>
      </trkpt>
      <trkpt lat="43.30067" lon="-1.32162">
        <ele>356</ele>
        <time>2023-12-21T11:38:55Z</time>
      </trkpt>
      <trkpt lat="43.30115" lon="-1.32178">
        <ele>342</ele>
        <time>2023-12-21T11:39:19Z</time>
      </trkpt>
      <trkpt lat="43.3015" lon="-1.32195">
        <ele>336</ele>
        <time>2023-12-21T11:39:38Z</time>
      </trkpt>
      <trkpt lat="43.30161" lon="-1.32185">
        <ele>336</ele>
        <time>2023-12-21T11:39:44Z</time>
      </trkpt>
      <trkpt lat="43.30166" lon="-1.32175">
        <ele>337</ele>
        <time>2023-12-21T11:39:49Z</time>
      </trkpt>
      <trkpt lat="43.30164" lon="-1.32157">
        <ele>339</ele>
        <time>2023-12-21T11:39:55Z</time>
      </trkpt>
      <trkpt lat="43.30157" lon="-1.32134">
        <ele>341</ele>
        <time>2023-12-21T11:40:05Z</time>
      </trkpt>
      <trkpt lat="43.30148" lon="-1.32065">
        <ele>348</ele>
        <time>2023-12-21T11:40:30Z</time>
      </trkpt>
      <trkpt lat="43.30136" lon="-1.32012">
        <ele>358</ele>
        <time>2023-12-21T11:40:50Z</time>
      </trkpt>
      <trkpt lat="43.3013" lon="-1.31995">
        <ele>362</ele>
        <time>2023-12-21T11:40:57Z</time>
      </trkpt>
      <trkpt lat="43.30115" lon="-1.31968">
        <ele>372</ele>
        <time>2023-12-21T11:41:10Z</time>
      </trkpt>
      <trkpt lat="43.30122" lon="-1.31927">
        <ele>370</ele>
        <time>2023-12-21T11:41:25Z</time>
      </trkpt>
      <trkpt lat="43.3011" lon="-1.31896">
        <ele>376</ele>
        <time>2023-12-21T11:41:38Z</time>
      </trkpt>
      <trkpt lat="43.30099" lon="-1.31885">
        <ele>382</ele>
        <time>2023-12-21T11:41:44Z</time>
      </trkpt>
      <trkpt lat="43.3008" lon="-1.31876">
        <ele>392</ele>
        <time>2023-12-21T11:41:55Z</time>
      </trkpt>
      <trkpt lat="43.30072" lon="-1.31868">
        <ele>397</ele>
        <time>2023-12-21T11:41:59Z</time>
      </trkpt>
      <trkpt lat="43.3007" lon="-1.31856">
        <ele>399</ele>
        <time>2023-12-21T11:42:04Z</time>
      </trkpt>
      <trkpt lat="43.30072" lon="-1.31828">
        <ele>396</ele>
        <time>2023-12-21T11:42:14Z</time>
      </trkpt>
      <trkpt lat="43.30065" lon="-1.31795">
        <ele>398</ele>
        <time>2023-12-21T11:42:27Z</time>
      </trkpt>
      <trkpt lat="43.30064" lon="-1.31758">
        <ele>395</ele>
        <time>2023-12-21T11:42:40Z</time>
      </trkpt>
      <trkpt lat="43.30056" lon="-1.31732">
        <ele>397</ele>
        <time>2023-12-21T11:42:50Z</time>
      </trkpt>
      <trkpt lat="43.30055" lon="-1.31707">
        <ele>394</ele>
        <time>2023-12-21T11:43:00Z</time>
      </trkpt>
      <trkpt lat="43.30069" lon="-1.31646">
        <ele>380</ele>
        <time>2023-12-21T11:43:23Z</time>
      </trkpt>
      <trkpt lat="43.30068" lon="-1.3162">
        <ele>377</ele>
        <time>2023-12-21T11:43:32Z</time>
      </trkpt>
      <trkpt lat="43.3006" lon="-1.31611">
        <ele>378</ele>
        <time>2023-12-21T11:43:38Z</time>
      </trkpt>
      <trkpt lat="43.30036" lon="-1.31609">
        <ele>384</ele>
        <time>2023-12-21T11:43:50Z</time>
      </trkpt>
      <trkpt lat="43.30005" lon="-1.3162">
        <ele>396</ele>
        <time>2023-12-21T11:44:06Z</time>
      </trkpt>
      <trkpt lat="43.29951" lon="-1.31627">
        <ele>409</ele>
        <time>2023-12-21T11:44:33Z</time>
      </trkpt>
      <trkpt lat="43.29939" lon="-1.31624">
        <ele>410</ele>
        <time>2023-12-21T11:44:39Z</time>
      </trkpt>
      <trkpt lat="43.29912" lon="-1.31602">
        <ele>406</ele>
        <time>2023-12-21T11:44:55Z</time>
      </trkpt>
      <trkpt lat="43.29901" lon="-1.316">
        <ele>409</ele>
        <time>2023-12-21T11:45:00Z</time>
      </trkpt>
      <trkpt lat="43.29891" lon="-1.31591">
        <ele>409</ele>
        <time>2023-12-21T11:45:06Z</time>
      </trkpt>
      <trkpt lat="43.29871" lon="-1.31563">
        <ele>410</ele>
        <time>2023-12-21T11:45:20Z</time>
      </trkpt>
      <trkpt lat="43.29841" lon="-1.3155">
        <ele>420</ele>
        <time>2023-12-21T11:45:36Z</time>
      </trkpt>
      <trkpt lat="43.2985" lon="-1.31445">
        <ele>412</ele>
        <time>2023-12-21T11:46:15Z</time>
      </trkpt>
      <trkpt lat="43.2986" lon="-1.31419">
        <ele>408</ele>
        <time>2023-12-21T11:46:25Z</time>
      </trkpt>
      <trkpt lat="43.29862" lon="-1.31392">
        <ele>407</ele>
        <time>2023-12-21T11:46:35Z</time>
      </trkpt>
      <trkpt lat="43.29856" lon="-1.31373">
        <ele>409</ele>
        <time>2023-12-21T11:46:43Z</time>
      </trkpt>
      <trkpt lat="43.29833" lon="-1.31353">
        <ele>416</ele>
        <time>2023-12-21T11:46:56Z</time>
      </trkpt>
      <trkpt lat="43.29812" lon="-1.31347">
        <ele>418</ele>
        <time>2023-12-21T11:47:07Z</time>
      </trkpt>
      <trkpt lat="43.29789" lon="-1.31344">
        <ele>421</ele>
        <time>2023-12-21T11:47:19Z</time>
      </trkpt>
      <trkpt lat="43.29768" lon="-1.31333">
        <ele>421</ele>
        <time>2023-12-21T11:47:30Z</time>
      </trkpt>
      <trkpt lat="43.29777" lon="-1.31328">
        <ele>418</ele>
        <time>2023-12-21T11:47:35Z</time>
      </trkpt>
      <trkpt lat="43.29792" lon="-1.31326">
        <ele>416</ele>
        <time>2023-12-21T11:47:42Z</time>
      </trkpt>
      <trkpt lat="43.29884" lon="-1.31335">
        <ele>398</ele>
        <time>2023-12-21T11:48:28Z</time>
      </trkpt>
      <trkpt lat="43.29932" lon="-1.31324">
        <ele>380</ele>
        <time>2023-12-21T11:48:53Z</time>
      </trkpt>
      <trkpt lat="43.29947" lon="-1.31317">
        <ele>374</ele>
        <time>2023-12-21T11:49:01Z</time>
      </trkpt>
      <trkpt lat="43.29964" lon="-1.313">
        <ele>367</ele>
        <time>2023-12-21T11:49:11Z</time>
      </trkpt>
      <trkpt lat="43.29977" lon="-1.31296">
        <ele>362</ele>
        <time>2023-12-21T11:49:18Z</time>
      </trkpt>
      <trkpt lat="43.30017" lon="-1.31295">
        <ele>349</ele>
        <time>2023-12-21T11:49:38Z</time>
      </trkpt>
      <trkpt lat="43.30061" lon="-1.31276">
        <ele>336</ele>
        <time>2023-12-21T11:50:01Z</time>
      </trkpt>
      <trkpt lat="43.30129" lon="-1.31259">
        <ele>317</ele>
        <time>2023-12-21T11:50:36Z</time>
      </trkpt>
      <trkpt lat="43.3015" lon="-1.3124">
        <ele>312</ele>
        <time>2023-12-21T11:50:48Z</time>
      </trkpt>
      <trkpt lat="43.30166" lon="-1.31231">
        <ele>307</ele>
        <time>2023-12-21T11:50:57Z</time>
      </trkpt>
      <trkpt lat="43.30197" lon="-1.31221">
        <ele>301</ele>
        <time>2023-12-21T11:51:13Z</time>
      </trkpt>
      <trkpt lat="43.30274" lon="-1.3118">
        <ele>297</ele>
        <time>2023-12-21T11:51:54Z</time>
      </trkpt>
      <trkpt lat="43.3032" lon="-1.31163">
        <ele>296</ele>
        <time>2023-12-21T11:52:18Z</time>
      </trkpt>
      <trkpt lat="43.30363" lon="-1.3114">
        <ele>290</ele>
        <time>2023-12-21T11:52:41Z</time>
      </trkpt>
      <trkpt lat="43.30382" lon="-1.31133">
        <ele>288</ele>
        <time>2023-12-21T11:52:51Z</time>
      </trkpt>
      <trkpt lat="43.30395" lon="-1.31133">
        <ele>287</ele>
        <time>2023-12-21T11:52:57Z</time>
      </trkpt>
      <trkpt lat="43.30405" lon="-1.31137">
        <ele>286</ele>
        <time>2023-12-21T11:53:03Z</time>
      </trkpt>
      <trkpt lat="43.30421" lon="-1.31153">
        <ele>285</ele>
        <time>2023-12-21T11:53:13Z</time>
      </trkpt>
      <trkpt lat="43.30436" lon="-1.31181">
        <ele>282</ele>
        <time>2023-12-21T11:53:25Z</time>
      </trkpt>
      <trkpt lat="43.30449" lon="-1.31197">
        <ele>280</ele>
        <time>2023-12-21T11:53:34Z</time>
      </trkpt>
      <trkpt lat="43.30467" lon="-1.3121">
        <ele>279</ele>
        <time>2023-12-21T11:53:44Z</time>
      </trkpt>
      <trkpt lat="43.3048" lon="-1.31214">
        <ele>279</ele>
        <time>2023-12-21T11:53:51Z</time>
      </trkpt>
      <trkpt lat="43.30531" lon="-1.31207">
        <ele>276</ele>
        <time>2023-12-21T11:54:16Z</time>
      </trkpt>
      <trkpt lat="43.30552" lon="-1.31194">
        <ele>274</ele>
        <time>2023-12-21T11:54:28Z</time>
      </trkpt>
      <trkpt lat="43.30575" lon="-1.31167">
        <ele>272</ele>
        <time>2023-12-21T11:54:43Z</time>
      </trkpt>
      <trkpt lat="43.30589" lon="-1.31164">
        <ele>269</ele>
        <time>2023-12-21T11:54:50Z</time>
      </trkpt>
      <trkpt lat="43.30617" lon="-1.31173">
        <ele>265</ele>
        <time>2023-12-21T11:55:05Z</time>
      </trkpt>
      <trkpt lat="43.30646" lon="-1.31179">
        <ele>259</ele>
        <time>2023-12-21T11:55:19Z</time>
      </trkpt>
      <trkpt lat="43.3073" lon="-1.31166">
        <ele>242</ele>
        <time>2023-12-21T11:56:02Z</time>
      </trkpt>
      <trkpt lat="43.3074" lon="-1.31166">
        <ele>240</ele>
        <time>2023-12-21T11:56:07Z</time>
      </trkpt>
      <trkpt lat="43.30768" lon="-1.31172">
        <ele>235</ele>
        <time>2023-12-21T11:56:21Z</time>
      </trkpt>
      <trkpt lat="43.3078" lon="-1.3117">
        <ele>232</ele>
        <time>2023-12-21T11:56:27Z</time>
      </trkpt>
      <trkpt lat="43.30803" lon="-1.31156">
        <ele>226</ele>
        <time>2023-12-21T11:56:39Z</time>
      </trkpt>
      <trkpt lat="43.30827" lon="-1.31127">
        <ele>219</ele>
        <time>2023-12-21T11:56:55Z</time>
      </trkpt>
      <trkpt lat="43.30845" lon="-1.31094">
        <ele>214</ele>
        <time>2023-12-21T11:57:10Z</time>
      </trkpt>
      <trkpt lat="43.30858" lon="-1.31058">
        <ele>210</ele>
        <time>2023-12-21T11:57:25Z</time>
      </trkpt>
      <trkpt lat="43.30869" lon="-1.31011">
        <ele>205</ele>
        <time>2023-12-21T11:57:43Z</time>
      </trkpt>
      <trkpt lat="43.30877" lon="-1.31007">
        <ele>203</ele>
        <time>2023-12-21T11:57:47Z</time>
      </trkpt>
      <trkpt lat="43.30898" lon="-1.31015">
        <ele>201</ele>
        <time>2023-12-21T11:57:58Z</time>
      </trkpt>
      <trkpt lat="43.30943" lon="-1.31027">
        <ele>196</ele>
        <time>2023-12-21T11:58:21Z</time>
      </trkpt>
      <trkpt lat="43.30996" lon="-1.31047">
        <ele>189</ele>
        <time>2023-12-21T11:58:49Z</time>
      </trkpt>
      <trkpt lat="43.31046" lon="-1.31059">
        <ele>184</ele>
        <time>2023-12-21T11:59:14Z</time>
      </trkpt>
      <trkpt lat="43.31111" lon="-1.31046">
        <ele>176</ele>
        <time>2023-12-21T11:59:47Z</time>
      </trkpt>
      <trkpt lat="43.31121" lon="-1.31042">
        <ele>175</ele>
        <time>2023-12-21T11:59:52Z</time>
      </trkpt>
      <trkpt lat="43.31123" lon="-1.31035">
        <ele>174</ele>
        <time>2023-12-21T11:59:55Z</time>
      </trkpt>
      <trkpt lat="43.31124" lon="-1.31023">
        <ele>174</ele>
        <time>2023-12-21T11:59:59Z</time>
      </trkpt>
      <trkpt lat="43.31114" lon="-1.30995">
        <ele>176</ele>
        <time>2023-12-21T12:00:11Z</time>
      </trkpt>
      <trkpt lat="43.31101" lon="-1.30969">
        <ele>177</ele>
        <time>2023-12-21T12:00:22Z</time>
      </trkpt>
      <trkpt lat="43.31087" lon="-1.30951">
        <ele>178</ele>
        <time>2023-12-21T12:00:32Z</time>
      </trkpt>
      <trkpt lat="43.3105" lon="-1.3089">
        <ele>179</ele>
        <time>2023-12-21T12:01:01Z</time>
      </trkpt>
      <trkpt lat="43.31022" lon="-1.30822">
        <ele>182</ele>
        <time>2023-12-21T12:01:29Z</time>
      </trkpt>
      <trkpt lat="43.31" lon="-1.3078">
        <ele>184</ele>
        <time>2023-12-21T12:01:48Z</time>
      </trkpt>
      <trkpt lat="43.30983" lon="-1.30764">
        <ele>187</ele>
        <time>2023-12-21T12:01:58Z</time>
      </trkpt>
      <trkpt lat="43.30952" lon="-1.30755">
        <ele>191</ele>
        <time>2023-12-21T12:02:14Z</time>
      </trkpt>
      <trkpt lat="43.30928" lon="-1.30732">
        <ele>195</ele>
        <time>2023-12-21T12:02:29Z</time>
      </trkpt>
      <trkpt lat="43.30891" lon="-1.30717">
        <ele>199</ele>
        <time>2023-12-21T12:02:48Z</time>
      </trkpt>
      <trkpt lat="43.30883" lon="-1.30711">
        <ele>199</ele>
        <time>2023-12-21T12:02:53Z</time>
      </trkpt>
      <trkpt lat="43.3087" lon="-1.30693">
        <ele>200</ele>
        <time>2023-12-21T12:03:02Z</time>
      </trkpt>
      <trkpt lat="43.30862" lon="-1.30664">
        <ele>200</ele>
        <time>2023-12-21T12:03:13Z</time>
      </trkpt>
      <trkpt lat="43.30862" lon="-1.30637">
        <ele>201</ele>
        <time>2023-12-21T12:03:23Z</time>
      </trkpt>
      <trkpt lat="43.30856" lon="-1.30592">
        <ele>204</ele>
        <time>2023-12-21T12:03:40Z</time>
      </trkpt>
      <trkpt lat="43.30841" lon="-1.30533">
        <ele>209</ele>
        <time>2023-12-21T12:04:02Z</time>
      </trkpt>
      <trkpt lat="43.30834" lon="-1.30517">
        <ele>211</ele>
        <time>2023-12-21T12:04:09Z</time>
      </trkpt>
      <trkpt lat="43.30809" lon="-1.30479">
        <ele>215</ele>
        <time>2023-12-21T12:04:28Z</time>
      </trkpt>
      <trkpt lat="43.30748" lon="-1.30371">
        <ele>226</ele>
        <time>2023-12-21T12:05:18Z</time>
      </trkpt>
      <trkpt lat="43.30683" lon="-1.30277">
        <ele>241</ele>
        <time>2023-12-21T12:06:05Z</time>
      </trkpt>
      <trkpt lat="43.3067" lon="-1.30249">
        <ele>246</ele>
        <time>2023-12-21T12:06:17Z</time>
      </trkpt>
      <trkpt lat="43.30662" lon="-1.3022">
        <ele>251</ele>
        <time>2023-12-21T12:06:28Z</time>
      </trkpt>
      <trkpt lat="43.30651" lon="-1.30116">
        <ele>265</ele>
        <time>2023-12-21T12:07:06Z</time>
      </trkpt>
      <trkpt lat="43.30645" lon="-1.30083">
        <ele>270</ele>
        <time>2023-12-21T12:07:19Z</time>
      </trkpt>
      <trkpt lat="43.30633" lon="-1.30047">
        <ele>274</ele>
        <time>2023-12-21T12:07:33Z</time>
      </trkpt>
      <trkpt lat="43.30623" lon="-1.30027">
        <ele>277</ele>
        <time>2023-12-21T12:07:42Z</time>
      </trkpt>
      <trkpt lat="43.30606" lon="-1.30005">
        <ele>281</ele>
        <time>2023-12-21T12:07:54Z</time>
      </trkpt>
      <trkpt lat="43.30555" lon="-1.29958">
        <ele>286</ele>
        <time>2023-12-21T12:08:24Z</time>
      </trkpt>
      <trkpt lat="43.30535" lon="-1.29929">
        <ele>290</ele>
        <time>2023-12-21T12:08:39Z</time>
      </trkpt>
      <trkpt lat="43.30512" lon="-1.29872">
        <ele>300</ele>
        <time>2023-12-21T12:09:03Z</time>
      </trkpt>
      <trkpt lat="43.30502" lon="-1.29854">
        <ele>304</ele>
        <time>2023-12-21T12:09:11Z</time>
      </trkpt>
      <trkpt lat="43.3048" lon="-1.29833">
        <ele>312</ele>
        <time>2023-12-21T12:09:24Z</time>
      </trkpt>
      <trkpt lat="43.30459" lon="-1.29797">
        <ele>324</ele>
        <time>2023-12-21T12:09:41Z</time>
      </trkpt>
      <trkpt lat="43.30445" lon="-1.29794">
        <ele>329</ele>
        <time>2023-12-21T12:09:48Z</time>
      </trkpt>
      <trkpt lat="43.30426" lon="-1.29776">
        <ele>337</ele>
        <time>2023-12-21T12:10:00Z</time>
      </trkpt>
      <trkpt lat="43.30416" lon="-1.29747">
        <ele>346</ele>
        <time>2023-12-21T12:10:12Z</time>
      </trkpt>
      <trkpt lat="43.30405" lon="-1.29736">
        <ele>348</ele>
        <time>2023-12-21T12:10:18Z</time>
      </trkpt>
      <trkpt lat="43.30401" lon="-1.2972">
        <ele>352</ele>
        <time>2023-12-21T12:10:25Z</time>
      </trkpt>
      <trkpt lat="43.3038" lon="-1.29668">
        <ele>364</ele>
        <time>2023-12-21T12:10:46Z</time>
      </trkpt>
      <trkpt lat="43.30374" lon="-1.29641">
        <ele>372</ele>
        <time>2023-12-21T12:10:56Z</time>
      </trkpt>
      <trkpt lat="43.30364" lon="-1.2962">
        <ele>378</ele>
        <time>2023-12-21T12:11:06Z</time>
      </trkpt>
      <trkpt lat="43.30361" lon="-1.296">
        <ele>384</ele>
        <time>2023-12-21T12:11:13Z</time>
      </trkpt>
      <trkpt lat="43.30363" lon="-1.29574">
        <ele>390</ele>
        <time>2023-12-21T12:11:23Z</time>
      </trkpt>
      <trkpt lat="43.30358" lon="-1.29547">
        <ele>395</ele>
        <time>2023-12-21T12:11:33Z</time>
      </trkpt>
      <trkpt lat="43.30359" lon="-1.29511">
        <ele>401</ele>
        <time>2023-12-21T12:11:46Z</time>
      </trkpt>
      <trkpt lat="43.30366" lon="-1.29484">
        <ele>403</ele>
        <time>2023-12-21T12:11:56Z</time>
      </trkpt>
      <trkpt lat="43.30362" lon="-1.29463">
        <ele>406</ele>
        <time>2023-12-21T12:12:04Z</time>
      </trkpt>
      <trkpt lat="43.30356" lon="-1.2945">
        <ele>408</ele>
        <time>2023-12-21T12:12:10Z</time>
      </trkpt>
      <trkpt lat="43.30336" lon="-1.29436">
        <ele>415</ele>
        <time>2023-12-21T12:12:21Z</time>
      </trkpt>
      <trkpt lat="43.30314" lon="-1.29412">
        <ele>422</ele>
        <time>2023-12-21T12:12:35Z</time>
      </trkpt>
      <trkpt lat="43.3031" lon="-1.29398">
        <ele>424</ele>
        <time>2023-12-21T12:12:41Z</time>
      </trkpt>
      <trkpt lat="43.30318" lon="-1.29336">
        <ele>426</ele>
        <time>2023-12-21T12:13:03Z</time>
      </trkpt>
      <trkpt lat="43.30324" lon="-1.29309">
        <ele>428</ele>
        <time>2023-12-21T12:13:14Z</time>
      </trkpt>
      <trkpt lat="43.30341" lon="-1.29295">
        <ele>426</ele>
        <time>2023-12-21T12:13:24Z</time>
      </trkpt>
      <trkpt lat="43.30349" lon="-1.2928">
        <ele>427</ele>
        <time>2023-12-21T12:13:30Z</time>
      </trkpt>
      <trkpt lat="43.30371" lon="-1.29251">
        <ele>426</ele>
        <time>2023-12-21T12:13:46Z</time>
      </trkpt>
      <trkpt lat="43.30376" lon="-1.29235">
        <ele>427</ele>
        <time>2023-12-21T12:13:52Z</time>
      </trkpt>
      <trkpt lat="43.30386" lon="-1.29181">
        <ele>429</ele>
        <time>2023-12-21T12:14:12Z</time>
      </trkpt>
      <trkpt lat="43.30399" lon="-1.29146">
        <ele>427</ele>
        <time>2023-12-21T12:14:27Z</time>
      </trkpt>
      <trkpt lat="43.30413" lon="-1.29081">
        <ele>424</ele>
        <time>2023-12-21T12:14:51Z</time>
      </trkpt>
      <trkpt lat="43.30414" lon="-1.29053">
        <ele>423</ele>
        <time>2023-12-21T12:15:02Z</time>
      </trkpt>
      <trkpt lat="43.3041" lon="-1.2903">
        <ele>423</ele>
        <time>2023-12-21T12:15:10Z</time>
      </trkpt>
      <trkpt lat="43.30411" lon="-1.29013">
        <ele>422</ele>
        <time>2023-12-21T12:15:16Z</time>
      </trkpt>
      <trkpt lat="43.30438" lon="-1.28967">
        <ele>414</ele>
        <time>2023-12-21T12:15:38Z</time>
      </trkpt>
      <trkpt lat="43.30443" lon="-1.28949">
        <ele>412</ele>
        <time>2023-12-21T12:15:45Z</time>
      </trkpt>
      <trkpt lat="43.30448" lon="-1.28887">
        <ele>412</ele>
        <time>2023-12-21T12:16:08Z</time>
      </trkpt>
      <trkpt lat="43.30434" lon="-1.28861">
        <ele>418</ele>
        <time>2023-12-21T12:16:19Z</time>
      </trkpt>
      <trkpt lat="43.30431" lon="-1.28851">
        <ele>419</ele>
        <time>2023-12-21T12:16:23Z</time>
      </trkpt>
      <trkpt lat="43.30433" lon="-1.28833">
        <ele>419</ele>
        <time>2023-12-21T12:16:30Z</time>
      </trkpt>
      <trkpt lat="43.30441" lon="-1.28814">
        <ele>419</ele>
        <time>2023-12-21T12:16:38Z</time>
      </trkpt>
      <trkpt lat="43.30443" lon="-1.28791">
        <ele>422</ele>
        <time>2023-12-21T12:16:46Z</time>
      </trkpt>
      <trkpt lat="43.30456" lon="-1.28746">
        <ele>424</ele>
        <time>2023-12-21T12:17:04Z</time>
      </trkpt>
      <trkpt lat="43.30447" lon="-1.28728">
        <ele>428</ele>
        <time>2023-12-21T12:17:12Z</time>
      </trkpt>
      <trkpt lat="43.30423" lon="-1.28709">
        <ele>437</ele>
        <time>2023-12-21T12:17:26Z</time>
      </trkpt>
      <trkpt lat="43.30404" lon="-1.28664">
        <ele>447</ele>
        <time>2023-12-21T12:17:45Z</time>
      </trkpt>
      <trkpt lat="43.30376" lon="-1.2862">
        <ele>454</ele>
        <time>2023-12-21T12:18:06Z</time>
      </trkpt>
      <trkpt lat="43.30357" lon="-1.28609">
        <ele>458</ele>
        <time>2023-12-21T12:18:16Z</time>
      </trkpt>
      <trkpt lat="43.3032" lon="-1.28614">
        <ele>464</ele>
        <time>2023-12-21T12:18:35Z</time>
      </trkpt>
      <trkpt lat="43.30312" lon="-1.28607">
        <ele>466</ele>
        <time>2023-12-21T12:18:40Z</time>
      </trkpt>
      <trkpt lat="43.30303" lon="-1.2859">
        <ele>468</ele>
        <time>2023-12-21T12:18:47Z</time>
      </trkpt>
      <trkpt lat="43.30302" lon="-1.28563">
        <ele>466</ele>
        <time>2023-12-21T12:18:57Z</time>
      </trkpt>
      <trkpt lat="43.30309" lon="-1.28535">
        <ele>462</ele>
        <time>2023-12-21T12:19:08Z</time>
      </trkpt>
      <trkpt lat="43.30375" lon="-1.28441">
        <ele>443</ele>
        <time>2023-12-21T12:19:56Z</time>
      </trkpt>
      <trkpt lat="43.30399" lon="-1.28371">
        <ele>432</ele>
        <time>2023-12-21T12:20:24Z</time>
      </trkpt>
      <trkpt lat="43.30414" lon="-1.2836">
        <ele>431</ele>
        <time>2023-12-21T12:20:32Z</time>
      </trkpt>
      <trkpt lat="43.30443" lon="-1.28358">
        <ele>423</ele>
        <time>2023-12-21T12:20:47Z</time>
      </trkpt>
      <trkpt lat="43.30464" lon="-1.2836">
        <ele>417</ele>
        <time>2023-12-21T12:20:57Z</time>
      </trkpt>
      <trkpt lat="43.30477" lon="-1.28363">
        <ele>413</ele>
        <time>2023-12-21T12:21:04Z</time>
      </trkpt>
      <trkpt lat="43.305" lon="-1.28385">
        <ele>408</ele>
        <time>2023-12-21T12:21:18Z</time>
      </trkpt>
      <trkpt lat="43.30512" lon="-1.28385">
        <ele>403</ele>
        <time>2023-12-21T12:21:24Z</time>
      </trkpt>
      <trkpt lat="43.30521" lon="-1.28354">
        <ele>397</ele>
        <time>2023-12-21T12:21:36Z</time>
      </trkpt>
      <trkpt lat="43.30518" lon="-1.2832">
        <ele>396</ele>
        <time>2023-12-21T12:21:49Z</time>
      </trkpt>
      <trkpt lat="43.30521" lon="-1.28294">
        <ele>392</ele>
        <time>2023-12-21T12:21:58Z</time>
      </trkpt>
      <trkpt lat="43.30534" lon="-1.2825">
        <ele>383</ele>
        <time>2023-12-21T12:22:15Z</time>
      </trkpt>
      <trkpt lat="43.30538" lon="-1.28226">
        <ele>378</ele>
        <time>2023-12-21T12:22:24Z</time>
      </trkpt>
      <trkpt lat="43.30541" lon="-1.28199">
        <ele>374</ele>
        <time>2023-12-21T12:22:34Z</time>
      </trkpt>
      <trkpt lat="43.3054" lon="-1.28162">
        <ele>370</ele>
        <time>2023-12-21T12:22:48Z</time>
      </trkpt>
      <trkpt lat="43.30547" lon="-1.28152">
        <ele>367</ele>
        <time>2023-12-21T12:22:53Z</time>
      </trkpt>
      <trkpt lat="43.30559" lon="-1.28155">
        <ele>364</ele>
        <time>2023-12-21T12:22:59Z</time>
      </trkpt>
      <trkpt lat="43.30583" lon="-1.28188">
        <ele>359</ele>
        <time>2023-12-21T12:23:16Z</time>
      </trkpt>
      <trkpt lat="43.30604" lon="-1.28232">
        <ele>356</ele>
        <time>2023-12-21T12:23:35Z</time>
      </trkpt>
      <trkpt lat="43.30616" lon="-1.28267">
        <ele>354</ele>
        <time>2023-12-21T12:23:49Z</time>
      </trkpt>
      <trkpt lat="43.30636" lon="-1.2829">
        <ele>349</ele>
        <time>2023-12-21T12:24:02Z</time>
      </trkpt>
      <trkpt lat="43.3065" lon="-1.28334">
        <ele>347</ele>
        <time>2023-12-21T12:24:20Z</time>
      </trkpt>
      <trkpt lat="43.30668" lon="-1.28373">
        <ele>343</ele>
        <time>2023-12-21T12:24:37Z</time>
      </trkpt>
      <trkpt lat="43.30678" lon="-1.28409">
        <ele>341</ele>
        <time>2023-12-21T12:24:51Z</time>
      </trkpt>
      <trkpt lat="43.30686" lon="-1.28418">
        <ele>338</ele>
        <time>2023-12-21T12:24:56Z</time>
      </trkpt>
      <trkpt lat="43.30719" lon="-1.2844">
        <ele>326</ele>
        <time>2023-12-21T12:25:14Z</time>
      </trkpt>
      <trkpt lat="43.30726" lon="-1.28451">
        <ele>324</ele>
        <time>2023-12-21T12:25:20Z</time>
      </trkpt>
      <trkpt lat="43.30732" lon="-1.28472">
        <ele>322</ele>
        <time>2023-12-21T12:25:28Z</time>
      </trkpt>
      <trkpt lat="43.30733" lon="-1.28516">
        <ele>321</ele>
        <time>2023-12-21T12:25:44Z</time>
      </trkpt>
      <trkpt lat="43.3074" lon="-1.28542">
        <ele>318</ele>
        <time>2023-12-21T12:25:54Z</time>
      </trkpt>
      <trkpt lat="43.30751" lon="-1.28608">
        <ele>313</ele>
        <time>2023-12-21T12:26:19Z</time>
      </trkpt>
      <trkpt lat="43.30763" lon="-1.2859">
        <ele>309</ele>
        <time>2023-12-21T12:26:27Z</time>
      </trkpt>
      <trkpt lat="43.30782" lon="-1.28536">
        <ele>302</ele>
        <time>2023-12-21T12:26:49Z</time>
      </trkpt>
      <trkpt lat="43.30794" lon="-1.28427">
        <ele>300</ele>
        <time>2023-12-21T12:27:29Z</time>
      </trkpt>
      <trkpt lat="43.30794" lon="-1.28401">
        <ele>301</ele>
        <time>2023-12-21T12:27:39Z</time>
      </trkpt>
      <trkpt lat="43.30815" lon="-1.28349">
        <ele>297</ele>
        <time>2023-12-21T12:28:00Z</time>
      </trkpt>
      <trkpt lat="43.30849" lon="-1.28237">
        <ele>297</ele>
        <time>2023-12-21T12:28:45Z</time>
      </trkpt>
      <trkpt lat="43.3086" lon="-1.28229">
        <ele>297</ele>
        <time>2023-12-21T12:28:51Z</time>
      </trkpt>
      <trkpt lat="43.30881" lon="-1.2824">
        <ele>297</ele>
        <time>2023-12-21T12:29:02Z</time>
      </trkpt>
      <trkpt lat="43.30902" lon="-1.28245">
        <ele>297</ele>
        <time>2023-12-21T12:29:13Z</time>
      </trkpt>
      <trkpt lat="43.30923" lon="-1.2826">
        <ele>297</ele>
        <time>2023-12-21T12:29:25Z</time>
      </trkpt>
      <trkpt lat="43.30939" lon="-1.28292">
        <ele>297</ele>
        <time>2023-12-21T12:29:39Z</time>
      </trkpt>
      <trkpt lat="43.30944" lon="-1.28296">
        <ele>297</ele>
        <time>2023-12-21T12:29:42Z</time>
      </trkpt>
      <trkpt lat="43.30953" lon="-1.283">
        <ele>298</ele>
        <time>2023-12-21T12:29:46Z</time>
      </trkpt>
      <trkpt lat="43.30975" lon="-1.28297">
        <ele>299</ele>
        <time>2023-12-21T12:29:58Z</time>
        <extensions>
          <visugpx:TrkExtension xmlns:visugpx="https://www.visugpx.com/editgpx/">
            <visugpx:node>1</visugpx:node>
            </visugpx:TrkExtension>
        </extensions>
      </trkpt>
    </trkseg>
  </trk>
  <trk>
    <name><![CDATA[Petite boucle Baigura]]></name>
    <extensions>
      <line xmlns="http://www.topografix.com/GPX/gpx_style/0/2">
        <color>ff0000</color>
        <opacity>1</opacity>
        <width>4</width>
          <extensions>
            <sens>1</sens>
          </extensions>
      </line>
    </extensions>
    <trkseg>
      <trkpt lat="43.30988" lon="-1.28288">
        <ele>297.4</ele>
      </trkpt>
      <trkpt lat="43.31001" lon="-1.28236">
        <ele>299</ele>
      </trkpt>
      <trkpt lat="43.30998" lon="-1.2823">
        <ele>299</ele>
      </trkpt>
      <trkpt lat="43.30986" lon="-1.28202">
        <ele>299.4</ele>
      </trkpt>
      <trkpt lat="43.30981" lon="-1.28189">
        <ele>299.4</ele>
      </trkpt>
      <trkpt lat="43.30977" lon="-1.28182">
        <ele>299.5</ele>
      </trkpt>
      <trkpt lat="43.30971" lon="-1.28175">
        <ele>299.7</ele>
      </trkpt>
      <trkpt lat="43.30963" lon="-1.28166">
        <ele>300</ele>
      </trkpt>
      <trkpt lat="43.30956" lon="-1.2816">
        <ele>299.8</ele>
      </trkpt>
      <trkpt lat="43.30944" lon="-1.28155">
        <ele>299.6</ele>
      </trkpt>
      <trkpt lat="43.30929" lon="-1.28147">
        <ele>299.8</ele>
      </trkpt>
      <trkpt lat="43.30912" lon="-1.2814">
        <ele>300.4</ele>
      </trkpt>
      <trkpt lat="43.30901" lon="-1.28136">
        <ele>301</ele>
      </trkpt>
      <trkpt lat="43.30896" lon="-1.28136">
        <ele>301.4</ele>
      </trkpt>
      <trkpt lat="43.30892" lon="-1.28136">
        <ele>301.7</ele>
      </trkpt>
      <trkpt lat="43.30886" lon="-1.28106">
        <ele>301.1</ele>
      </trkpt>
      <trkpt lat="43.30885" lon="-1.28102">
        <ele>301.1</ele>
      </trkpt>
      <trkpt lat="43.30876" lon="-1.28098">
        <ele>301.9</ele>
      </trkpt>
      <trkpt lat="43.30871" lon="-1.28095">
        <ele>302.4</ele>
      </trkpt>
      <trkpt lat="43.30862" lon="-1.28088">
        <ele>303.1</ele>
      </trkpt>
      <trkpt lat="43.30839" lon="-1.28079">
        <ele>304.4</ele>
      </trkpt>
      <trkpt lat="43.30822" lon="-1.28073">
        <ele>305.4</ele>
      </trkpt>
      <trkpt lat="43.30811" lon="-1.28069">
        <ele>306.1</ele>
      </trkpt>
      <trkpt lat="43.30792" lon="-1.28062">
        <ele>308.1</ele>
      </trkpt>
      <trkpt lat="43.30782" lon="-1.28057">
        <ele>309.4</ele>
      </trkpt>
      <trkpt lat="43.30773" lon="-1.28052">
        <ele>310.2</ele>
      </trkpt>
      <trkpt lat="43.30769" lon="-1.2805">
        <ele>310.4</ele>
      </trkpt>
      <trkpt lat="43.30761" lon="-1.28049">
        <ele>311.2</ele>
      </trkpt>
      <trkpt lat="43.30753" lon="-1.2805">
        <ele>312.3</ele>
      </trkpt>
      <trkpt lat="43.30741" lon="-1.2805">
        <ele>314.2</ele>
      </trkpt>
      <trkpt lat="43.30731" lon="-1.28051">
        <ele>316.1</ele>
      </trkpt>
      <trkpt lat="43.30723" lon="-1.28049">
        <ele>317.4</ele>
      </trkpt>
      <trkpt lat="43.30713" lon="-1.28045">
        <ele>319</ele>
      </trkpt>
      <trkpt lat="43.30695" lon="-1.28035">
        <ele>322.1</ele>
      </trkpt>
      <trkpt lat="43.30671" lon="-1.28025">
        <ele>326.1</ele>
      </trkpt>
      <trkpt lat="43.30658" lon="-1.28021">
        <ele>328.9</ele>
      </trkpt>
      <trkpt lat="43.30651" lon="-1.2802">
        <ele>330.5</ele>
      </trkpt>
      <trkpt lat="43.30648" lon="-1.2802">
        <ele>331.2</ele>
      </trkpt>
      <trkpt lat="43.30642" lon="-1.28025">
        <ele>333</ele>
      </trkpt>
      <trkpt lat="43.3064" lon="-1.28032">
        <ele>333.9</ele>
      </trkpt>
      <trkpt lat="43.3064" lon="-1.28034">
        <ele>334</ele>
      </trkpt>
      <trkpt lat="43.30638" lon="-1.28045">
        <ele>334.9</ele>
      </trkpt>
      <trkpt lat="43.30635" lon="-1.28069">
        <ele>337.8</ele>
      </trkpt>
      <trkpt lat="43.30631" lon="-1.28112">
        <ele>342.3</ele>
      </trkpt>
      <trkpt lat="43.30629" lon="-1.28127">
        <ele>343.6</ele>
      </trkpt>
      <trkpt lat="43.30624" lon="-1.2815">
        <ele>346.2</ele>
      </trkpt>
      <trkpt lat="43.30618" lon="-1.28169">
        <ele>348.8</ele>
      </trkpt>
      <trkpt lat="43.30616" lon="-1.28183">
        <ele>349.5</ele>
      </trkpt>
      <trkpt lat="43.30614" lon="-1.28204">
        <ele>350.8</ele>
      </trkpt>
      <trkpt lat="43.30613" lon="-1.28224">
        <ele>352.5</ele>
      </trkpt>
      <trkpt lat="43.3061" lon="-1.28252">
        <ele>355.5</ele>
      </trkpt>
      <trkpt lat="43.30608" lon="-1.28267">
        <ele>357.3</ele>
      </trkpt>
      <trkpt lat="43.30607" lon="-1.28271">
        <ele>357.9</ele>
      </trkpt>
      <trkpt lat="43.30605" lon="-1.28279">
        <ele>359</ele>
      </trkpt>
      <trkpt lat="43.30602" lon="-1.28279">
        <ele>360</ele>
      </trkpt>
      <trkpt lat="43.30598" lon="-1.28277">
        <ele>361.2</ele>
      </trkpt>
      <trkpt lat="43.30594" lon="-1.28271">
        <ele>362.2</ele>
      </trkpt>
      <trkpt lat="43.30589" lon="-1.2826">
        <ele>363.4</ele>
      </trkpt>
      <trkpt lat="43.30574" lon="-1.28228">
        <ele>367.2</ele>
      </trkpt>
      <trkpt lat="43.30559" lon="-1.28201">
        <ele>371.1</ele>
      </trkpt>
      <trkpt lat="43.30551" lon="-1.28181">
        <ele>372.6</ele>
      </trkpt>
      <trkpt lat="43.30544" lon="-1.28169">
        <ele>374.3</ele>
      </trkpt>
      <trkpt lat="43.30536" lon="-1.28161">
        <ele>376.5</ele>
      </trkpt>
      <trkpt lat="43.30529" lon="-1.28157">
        <ele>378.5</ele>
      </trkpt>
      <trkpt lat="43.30521" lon="-1.28155">
        <ele>380.6</ele>
      </trkpt>
      <trkpt lat="43.30515" lon="-1.28155">
        <ele>382.2</ele>
      </trkpt>
      <trkpt lat="43.3051" lon="-1.28158">
        <ele>384</ele>
      </trkpt>
      <trkpt lat="43.305" lon="-1.28173">
        <ele>388.7</ele>
      </trkpt>
      <trkpt lat="43.30489" lon="-1.28189">
        <ele>393.5</ele>
      </trkpt>
      <trkpt lat="43.30477" lon="-1.28202">
        <ele>398.4</ele>
      </trkpt>
      <trkpt lat="43.30468" lon="-1.28209">
        <ele>401.6</ele>
      </trkpt>
      <trkpt lat="43.30462" lon="-1.28214">
        <ele>403.8</ele>
      </trkpt>
      <trkpt lat="43.30452" lon="-1.28226">
        <ele>408.2</ele>
      </trkpt>
      <trkpt lat="43.30448" lon="-1.28235">
        <ele>410.4</ele>
      </trkpt>
      <trkpt lat="43.30445" lon="-1.28244">
        <ele>412.2</ele>
      </trkpt>
      <trkpt lat="43.30436" lon="-1.2826">
        <ele>416.1</ele>
      </trkpt>
      <trkpt lat="43.30429" lon="-1.28269">
        <ele>418.9</ele>
      </trkpt>
      <trkpt lat="43.30425" lon="-1.28272">
        <ele>420.2</ele>
      </trkpt>
      <trkpt lat="43.30417" lon="-1.28271">
        <ele>421.7</ele>
      </trkpt>
      <trkpt lat="43.30412" lon="-1.28272">
        <ele>422.2</ele>
      </trkpt>
      <trkpt lat="43.3041" lon="-1.28278">
        <ele>423.3</ele>
      </trkpt>
      <trkpt lat="43.30409" lon="-1.28283">
        <ele>424</ele>
      </trkpt>
      <trkpt lat="43.30401" lon="-1.28288">
        <ele>425</ele>
      </trkpt>
      <trkpt lat="43.30405" lon="-1.28295">
        <ele>425.9</ele>
      </trkpt>
      <trkpt lat="43.30406" lon="-1.28299">
        <ele>426.4</ele>
      </trkpt>
      <trkpt lat="43.30406" lon="-1.28304">
        <ele>427.2</ele>
      </trkpt>
      <trkpt lat="43.30405" lon="-1.2831">
        <ele>427.9</ele>
      </trkpt>
      <trkpt lat="43.30402" lon="-1.28316">
        <ele>428.9</ele>
      </trkpt>
      <trkpt lat="43.30397" lon="-1.28326">
        <ele>430.7</ele>
      </trkpt>
      <trkpt lat="43.30395" lon="-1.28335">
        <ele>432.4</ele>
      </trkpt>
      <trkpt lat="43.30394" lon="-1.28346">
        <ele>434.5</ele>
      </trkpt>
      <trkpt lat="43.30394" lon="-1.28354">
        <ele>436</ele>
      </trkpt>
      <trkpt lat="43.30393" lon="-1.28361">
        <ele>437.4</ele>
      </trkpt>
      <trkpt lat="43.30389" lon="-1.28367">
        <ele>438.4</ele>
      </trkpt>
      <trkpt lat="43.30382" lon="-1.28378">
        <ele>439.2</ele>
      </trkpt>
      <trkpt lat="43.30378" lon="-1.2839">
        <ele>440.6</ele>
      </trkpt>
      <trkpt lat="43.30376" lon="-1.28398">
        <ele>442.4</ele>
      </trkpt>
      <trkpt lat="43.30373" lon="-1.28406">
        <ele>444.4</ele>
      </trkpt>
      <trkpt lat="43.30367" lon="-1.28415">
        <ele>447</ele>
      </trkpt>
      <trkpt lat="43.30363" lon="-1.28423">
        <ele>448.7</ele>
      </trkpt>
      <trkpt lat="43.30359" lon="-1.28434">
        <ele>450.3</ele>
      </trkpt>
      <trkpt lat="43.30352" lon="-1.28449">
        <ele>452.3</ele>
      </trkpt>
      <trkpt lat="43.30344" lon="-1.28467">
        <ele>455.3</ele>
      </trkpt>
      <trkpt lat="43.30336" lon="-1.28483">
        <ele>457.6</ele>
      </trkpt>
      <trkpt lat="43.3033" lon="-1.28494">
        <ele>458.7</ele>
      </trkpt>
      <trkpt lat="43.30322" lon="-1.28505">
        <ele>459.9</ele>
      </trkpt>
      <trkpt lat="43.30313" lon="-1.28515">
        <ele>461.6</ele>
      </trkpt>
      <trkpt lat="43.30304" lon="-1.28528">
        <ele>464.2</ele>
      </trkpt>
      <trkpt lat="43.30298" lon="-1.28539">
        <ele>466.2</ele>
      </trkpt>
      <trkpt lat="43.30297" lon="-1.28545">
        <ele>466.9</ele>
      </trkpt>
      <trkpt lat="43.30296" lon="-1.2855">
        <ele>467.5</ele>
      </trkpt>
      <trkpt lat="43.30297" lon="-1.28568">
        <ele>468.7</ele>
      </trkpt>
      <trkpt lat="43.30297" lon="-1.28582">
        <ele>469.5</ele>
      </trkpt>
      <trkpt lat="43.30286" lon="-1.28589">
        <ele>470.6</ele>
      </trkpt>
      <trkpt lat="43.30277" lon="-1.28593">
        <ele>471.5</ele>
      </trkpt>
      <trkpt lat="43.3027" lon="-1.28599">
        <ele>473.1</ele>
      </trkpt>
      <trkpt lat="43.30261" lon="-1.28605">
        <ele>475.3</ele>
      </trkpt>
      <trkpt lat="43.30252" lon="-1.28611">
        <ele>477.6</ele>
      </trkpt>
      <trkpt lat="43.30239" lon="-1.28619">
        <ele>481.7</ele>
      </trkpt>
      <trkpt lat="43.30223" lon="-1.28625">
        <ele>486.8</ele>
      </trkpt>
      <trkpt lat="43.30203" lon="-1.28631">
        <ele>493.7</ele>
      </trkpt>
      <trkpt lat="43.30189" lon="-1.28633">
        <ele>498.1</ele>
      </trkpt>
      <trkpt lat="43.30182" lon="-1.28633">
        <ele>500.2</ele>
      </trkpt>
      <trkpt lat="43.30177" lon="-1.28637">
        <ele>501.9</ele>
      </trkpt>
      <trkpt lat="43.30176" lon="-1.28638">
        <ele>502.2</ele>
      </trkpt>
      <trkpt lat="43.30167" lon="-1.28644">
        <ele>505.3</ele>
      </trkpt>
      <trkpt lat="43.30152" lon="-1.28655">
        <ele>510.9</ele>
      </trkpt>
      <trkpt lat="43.30146" lon="-1.28658">
        <ele>513.1</ele>
      </trkpt>
      <trkpt lat="43.30132" lon="-1.28662">
        <ele>518.1</ele>
      </trkpt>
      <trkpt lat="43.30114" lon="-1.28671">
        <ele>525.4</ele>
      </trkpt>
      <trkpt lat="43.30095" lon="-1.28683">
        <ele>532.1</ele>
      </trkpt>
      <trkpt lat="43.30089" lon="-1.28685">
        <ele>533.8</ele>
      </trkpt>
      <trkpt lat="43.30081" lon="-1.28685">
        <ele>536</ele>
      </trkpt>
      <trkpt lat="43.30074" lon="-1.28687">
        <ele>538.2</ele>
      </trkpt>
      <trkpt lat="43.30058" lon="-1.28695">
        <ele>543.3</ele>
      </trkpt>
      <trkpt lat="43.30037" lon="-1.28706">
        <ele>550.4</ele>
      </trkpt>
      <trkpt lat="43.30023" lon="-1.28713">
        <ele>555</ele>
      </trkpt>
      <trkpt lat="43.30007" lon="-1.28721">
        <ele>559.9</ele>
      </trkpt>
      <trkpt lat="43.29994" lon="-1.28735">
        <ele>564.1</ele>
      </trkpt>
      <trkpt lat="43.29983" lon="-1.28747">
        <ele>567.2</ele>
      </trkpt>
      <trkpt lat="43.29967" lon="-1.28751">
        <ele>572.3</ele>
      </trkpt>
      <trkpt lat="43.29955" lon="-1.28763">
        <ele>577.6</ele>
      </trkpt>
      <trkpt lat="43.29941" lon="-1.28771">
        <ele>583.6</ele>
      </trkpt>
      <trkpt lat="43.29933" lon="-1.28785">
        <ele>588</ele>
      </trkpt>
      <trkpt lat="43.2993" lon="-1.28799">
        <ele>590</ele>
      </trkpt>
      <trkpt lat="43.29922" lon="-1.28825">
        <ele>595.1</ele>
      </trkpt>
      <trkpt lat="43.29916" lon="-1.28837">
        <ele>598.2</ele>
      </trkpt>
      <trkpt lat="43.29913" lon="-1.28842">
        <ele>599.7</ele>
      </trkpt>
      <trkpt lat="43.29914" lon="-1.28846">
        <ele>599</ele>
      </trkpt>
      <trkpt lat="43.29913" lon="-1.28855">
        <ele>599.3</ele>
      </trkpt>
      <trkpt lat="43.29912" lon="-1.28862">
        <ele>599.6</ele>
      </trkpt>
      <trkpt lat="43.29907" lon="-1.2887">
        <ele>602.2</ele>
      </trkpt>
      <trkpt lat="43.29899" lon="-1.28878">
        <ele>606.7</ele>
      </trkpt>
      <trkpt lat="43.29893" lon="-1.28892">
        <ele>610.2</ele>
      </trkpt>
      <trkpt lat="43.29884" lon="-1.28904">
        <ele>615.4</ele>
      </trkpt>
      <trkpt lat="43.29878" lon="-1.28926">
        <ele>619.2</ele>
      </trkpt>
      <trkpt lat="43.29875" lon="-1.28933">
        <ele>621.3</ele>
      </trkpt>
      <trkpt lat="43.29869" lon="-1.28943">
        <ele>625.6</ele>
      </trkpt>
      <trkpt lat="43.29864" lon="-1.28948">
        <ele>629.5</ele>
      </trkpt>
      <trkpt lat="43.29863" lon="-1.28961">
        <ele>632</ele>
      </trkpt>
      <trkpt lat="43.29864" lon="-1.2898">
        <ele>633.9</ele>
      </trkpt>
      <trkpt lat="43.29864" lon="-1.28989">
        <ele>635.3</ele>
      </trkpt>
      <trkpt lat="43.29862" lon="-1.29007">
        <ele>639.4</ele>
      </trkpt>
      <trkpt lat="43.29862" lon="-1.29013">
        <ele>640.3</ele>
      </trkpt>
      <trkpt lat="43.29861" lon="-1.29023">
        <ele>642.4</ele>
      </trkpt>
      <trkpt lat="43.29861" lon="-1.29035">
        <ele>644.1</ele>
      </trkpt>
      <trkpt lat="43.29861" lon="-1.29042">
        <ele>645.1</ele>
      </trkpt>
      <trkpt lat="43.2986" lon="-1.29047">
        <ele>646.4</ele>
      </trkpt>
      <trkpt lat="43.29859" lon="-1.2905">
        <ele>647.5</ele>
      </trkpt>
      <trkpt lat="43.29859" lon="-1.29059">
        <ele>648.4</ele>
      </trkpt>
      <trkpt lat="43.29859" lon="-1.29062">
        <ele>648.6</ele>
      </trkpt>
      <trkpt lat="43.29858" lon="-1.29067">
        <ele>649.5</ele>
      </trkpt>
      <trkpt lat="43.29854" lon="-1.29074">
        <ele>652.5</ele>
      </trkpt>
      <trkpt lat="43.29852" lon="-1.2908">
        <ele>654.3</ele>
      </trkpt>
      <trkpt lat="43.29851" lon="-1.29094">
        <ele>655.8</ele>
      </trkpt>
      <trkpt lat="43.29851" lon="-1.291">
        <ele>656.1</ele>
      </trkpt>
      <trkpt lat="43.2985" lon="-1.29107">
        <ele>657.2</ele>
      </trkpt>
      <trkpt lat="43.29849" lon="-1.29119">
        <ele>659.2</ele>
      </trkpt>
      <trkpt lat="43.29846" lon="-1.29127">
        <ele>662.8</ele>
      </trkpt>
      <trkpt lat="43.29844" lon="-1.29132">
        <ele>665.3</ele>
      </trkpt>
      <trkpt lat="43.29841" lon="-1.29134">
        <ele>668.2</ele>
      </trkpt>
      <trkpt lat="43.29837" lon="-1.29134">
        <ele>671.7</ele>
      </trkpt>
      <trkpt lat="43.29834" lon="-1.2913">
        <ele>673.5</ele>
      </trkpt>
      <trkpt lat="43.29831" lon="-1.29126">
        <ele>674.3</ele>
      </trkpt>
      <trkpt lat="43.29832" lon="-1.29135">
        <ele>675.7</ele>
      </trkpt>
      <trkpt lat="43.2983" lon="-1.2914">
        <ele>677.2</ele>
      </trkpt>
      <trkpt lat="43.29827" lon="-1.29145">
        <ele>678</ele>
      </trkpt>
      <trkpt lat="43.29823" lon="-1.29149">
        <ele>679.2</ele>
      </trkpt>
      <trkpt lat="43.29818" lon="-1.29152">
        <ele>680.8</ele>
      </trkpt>
      <trkpt lat="43.29811" lon="-1.29151">
        <ele>683.3</ele>
      </trkpt>
      <trkpt lat="43.29803" lon="-1.2915">
        <ele>686.7</ele>
      </trkpt>
      <trkpt lat="43.29801" lon="-1.29153">
        <ele>687.5</ele>
      </trkpt>
      <trkpt lat="43.298" lon="-1.29153">
        <ele>688.1</ele>
      </trkpt>
      <trkpt lat="43.29794" lon="-1.29152">
        <ele>691.6</ele>
      </trkpt>
      <trkpt lat="43.29792" lon="-1.29153">
        <ele>692.5</ele>
      </trkpt>
      <trkpt lat="43.29788" lon="-1.2916">
        <ele>693.5</ele>
      </trkpt>
      <trkpt lat="43.29786" lon="-1.29162">
        <ele>694.1</ele>
      </trkpt>
      <trkpt lat="43.29784" lon="-1.29162">
        <ele>695.1</ele>
      </trkpt>
      <trkpt lat="43.29783" lon="-1.29165">
        <ele>694.9</ele>
      </trkpt>
      <trkpt lat="43.29782" lon="-1.29166">
        <ele>695.2</ele>
      </trkpt>
      <trkpt lat="43.29781" lon="-1.29165">
        <ele>695.9</ele>
      </trkpt>
      <trkpt lat="43.2978" lon="-1.2916">
        <ele>697.5</ele>
      </trkpt>
      <trkpt lat="43.29781" lon="-1.29156">
        <ele>698</ele>
      </trkpt>
      <trkpt lat="43.2978" lon="-1.29154">
        <ele>699</ele>
      </trkpt>
      <trkpt lat="43.29779" lon="-1.29151">
        <ele>700.3</ele>
      </trkpt>
      <trkpt lat="43.29777" lon="-1.29149">
        <ele>701.8</ele>
      </trkpt>
      <trkpt lat="43.29766" lon="-1.29142">
        <ele>707.9</ele>
      </trkpt>
      <trkpt lat="43.29758" lon="-1.29144">
        <ele>710.7</ele>
      </trkpt>
      <trkpt lat="43.29752" lon="-1.29143">
        <ele>713.3</ele>
      </trkpt>
      <trkpt lat="43.29745" lon="-1.29134">
        <ele>718.8</ele>
      </trkpt>
      <trkpt lat="43.29736" lon="-1.2912">
        <ele>728</ele>
      </trkpt>
      <trkpt lat="43.29732" lon="-1.29117">
        <ele>732</ele>
      </trkpt>
      <trkpt lat="43.2973" lon="-1.29122">
        <ele>732.1</ele>
      </trkpt>
      <trkpt lat="43.29725" lon="-1.29145">
        <ele>729</ele>
      </trkpt>
      <trkpt lat="43.2972" lon="-1.29155">
        <ele>729.7</ele>
      </trkpt>
      <trkpt lat="43.29715" lon="-1.29163">
        <ele>730.3</ele>
      </trkpt>
      <trkpt lat="43.2971" lon="-1.29167">
        <ele>731.6</ele>
      </trkpt>
      <trkpt lat="43.29706" lon="-1.29172">
        <ele>732</ele>
      </trkpt>
      <trkpt lat="43.29699" lon="-1.29176">
        <ele>733.6</ele>
      </trkpt>
      <trkpt lat="43.2969" lon="-1.29182">
        <ele>734</ele>
      </trkpt>
      <trkpt lat="43.29682" lon="-1.29186">
        <ele>734.5</ele>
      </trkpt>
      <trkpt lat="43.29676" lon="-1.29188">
        <ele>735.4</ele>
      </trkpt>
      <trkpt lat="43.29672" lon="-1.29188">
        <ele>736.5</ele>
      </trkpt>
      <trkpt lat="43.29666" lon="-1.29187">
        <ele>738.2</ele>
      </trkpt>
      <trkpt lat="43.29662" lon="-1.29186">
        <ele>739.1</ele>
      </trkpt>
      <trkpt lat="43.29657" lon="-1.29182">
        <ele>741</ele>
      </trkpt>
      <trkpt lat="43.29653" lon="-1.29176">
        <ele>743.3</ele>
      </trkpt>
      <trkpt lat="43.29647" lon="-1.29171">
        <ele>745.6</ele>
      </trkpt>
      <trkpt lat="43.29642" lon="-1.29168">
        <ele>747.2</ele>
      </trkpt>
      <trkpt lat="43.29637" lon="-1.29165">
        <ele>748.9</ele>
      </trkpt>
      <trkpt lat="43.29634" lon="-1.29163">
        <ele>750.1</ele>
      </trkpt>
      <trkpt lat="43.29631" lon="-1.29163">
        <ele>750.8</ele>
      </trkpt>
      <trkpt lat="43.29627" lon="-1.29162">
        <ele>752</ele>
      </trkpt>
      <trkpt lat="43.29624" lon="-1.29159">
        <ele>753.6</ele>
      </trkpt>
      <trkpt lat="43.29621" lon="-1.29157">
        <ele>754.9</ele>
      </trkpt>
      <trkpt lat="43.29616" lon="-1.29157">
        <ele>756</ele>
      </trkpt>
      <trkpt lat="43.2961" lon="-1.29157">
        <ele>757.4</ele>
      </trkpt>
      <trkpt lat="43.29608" lon="-1.29156">
        <ele>758.2</ele>
      </trkpt>
      <trkpt lat="43.29606" lon="-1.29154">
        <ele>759.3</ele>
      </trkpt>
      <trkpt lat="43.29603" lon="-1.29149">
        <ele>761.6</ele>
      </trkpt>
      <trkpt lat="43.29602" lon="-1.29147">
        <ele>762.4</ele>
      </trkpt>
      <trkpt lat="43.29598" lon="-1.29145">
        <ele>764</ele>
      </trkpt>
      <trkpt lat="43.29595" lon="-1.29144">
        <ele>764.9</ele>
      </trkpt>
      <trkpt lat="43.29593" lon="-1.29142">
        <ele>766</ele>
      </trkpt>
      <trkpt lat="43.29591" lon="-1.29141">
        <ele>766.7</ele>
      </trkpt>
      <trkpt lat="43.29589" lon="-1.29139">
        <ele>767.7</ele>
      </trkpt>
      <trkpt lat="43.29587" lon="-1.29136">
        <ele>769.3</ele>
      </trkpt>
      <trkpt lat="43.29585" lon="-1.29134">
        <ele>770.6</ele>
      </trkpt>
      <trkpt lat="43.29579" lon="-1.29133">
        <ele>772.1</ele>
      </trkpt>
      <trkpt lat="43.29576" lon="-1.29131">
        <ele>773.4</ele>
      </trkpt>
      <trkpt lat="43.29571" lon="-1.29128">
        <ele>775.3</ele>
      </trkpt>
      <trkpt lat="43.29566" lon="-1.29124">
        <ele>777.3</ele>
      </trkpt>
      <trkpt lat="43.29562" lon="-1.29122">
        <ele>778.4</ele>
      </trkpt>
      <trkpt lat="43.29557" lon="-1.2912">
        <ele>779.6</ele>
      </trkpt>
      <trkpt lat="43.29555" lon="-1.29119">
        <ele>780.2</ele>
      </trkpt>
      <trkpt lat="43.29551" lon="-1.29113">
        <ele>782.7</ele>
      </trkpt>
      <trkpt lat="43.2955" lon="-1.29112">
        <ele>783.2</ele>
      </trkpt>
      <trkpt lat="43.29546" lon="-1.29109">
        <ele>785</ele>
      </trkpt>
      <trkpt lat="43.29543" lon="-1.29106">
        <ele>786.6</ele>
      </trkpt>
      <trkpt lat="43.29541" lon="-1.29106">
        <ele>787.1</ele>
      </trkpt>
      <trkpt lat="43.29539" lon="-1.29105">
        <ele>787.9</ele>
      </trkpt>
      <trkpt lat="43.29536" lon="-1.29104">
        <ele>789</ele>
      </trkpt>
      <trkpt lat="43.2953" lon="-1.29101">
        <ele>791.4</ele>
      </trkpt>
      <trkpt lat="43.29526" lon="-1.291">
        <ele>792.5</ele>
      </trkpt>
      <trkpt lat="43.29525" lon="-1.29098">
        <ele>793.3</ele>
      </trkpt>
      <trkpt lat="43.29524" lon="-1.29097">
        <ele>793.7</ele>
      </trkpt>
      <trkpt lat="43.29522" lon="-1.29097">
        <ele>794.1</ele>
      </trkpt>
      <trkpt lat="43.2952" lon="-1.29096">
        <ele>794.8</ele>
      </trkpt>
      <trkpt lat="43.29518" lon="-1.29095">
        <ele>795.4</ele>
      </trkpt>
      <trkpt lat="43.29514" lon="-1.29094">
        <ele>796.4</ele>
      </trkpt>
      <trkpt lat="43.29508" lon="-1.29093">
        <ele>797.8</ele>
      </trkpt>
      <trkpt lat="43.29506" lon="-1.29094">
        <ele>797.8</ele>
      </trkpt>
      <trkpt lat="43.29504" lon="-1.29094">
        <ele>798.2</ele>
      </trkpt>
      <trkpt lat="43.29501" lon="-1.29094">
        <ele>798.7</ele>
      </trkpt>
      <trkpt lat="43.29497" lon="-1.29092">
        <ele>800.3</ele>
      </trkpt>
      <trkpt lat="43.29492" lon="-1.29089">
        <ele>802.5</ele>
      </trkpt>
      <trkpt lat="43.29488" lon="-1.29088">
        <ele>803.8</ele>
      </trkpt>
      <trkpt lat="43.29484" lon="-1.29086">
        <ele>805.4</ele>
      </trkpt>
      <trkpt lat="43.29475" lon="-1.29085">
        <ele>807.9</ele>
      </trkpt>
      <trkpt lat="43.29464" lon="-1.29082">
        <ele>811.3</ele>
      </trkpt>
      <trkpt lat="43.29459" lon="-1.29081">
        <ele>812.8</ele>
      </trkpt>
      <trkpt lat="43.29457" lon="-1.2908">
        <ele>813.5</ele>
      </trkpt>
      <trkpt lat="43.29455" lon="-1.29079">
        <ele>814.2</ele>
      </trkpt>
      <trkpt lat="43.29453" lon="-1.29079">
        <ele>814.7</ele>
        <extensions>
          <visugpx:TrkExtension xmlns:visugpx="https://www.visugpx.com/editgpx/">
            <visugpx:node>1</visugpx:node>
            </visugpx:TrkExtension>
        </extensions>
      </trkpt>
      <trkpt lat="43.2945" lon="-1.29078">
        <ele>815.6</ele>
      </trkpt>
      <trkpt lat="43.29447" lon="-1.29077">
        <ele>816.5</ele>
      </trkpt>
      <trkpt lat="43.29443" lon="-1.29077">
        <ele>817.6</ele>
      </trkpt>
      <trkpt lat="43.29439" lon="-1.29078">
        <ele>818.7</ele>
      </trkpt>
      <trkpt lat="43.29432" lon="-1.29079">
        <ele>820.7</ele>
      </trkpt>
      <trkpt lat="43.29431" lon="-1.29079">
        <ele>821.1</ele>
      </trkpt>
      <trkpt lat="43.29429" lon="-1.29079">
        <ele>821.7</ele>
      </trkpt>
      <trkpt lat="43.29426" lon="-1.29079">
        <ele>822.7</ele>
      </trkpt>
      <trkpt lat="43.29424" lon="-1.29081">
        <ele>823</ele>
      </trkpt>
      <trkpt lat="43.29421" lon="-1.29082">
        <ele>823.8</ele>
      </trkpt>
      <trkpt lat="43.29415" lon="-1.29083">
        <ele>825.5</ele>
      </trkpt>
      <trkpt lat="43.29411" lon="-1.29084">
        <ele>826.3</ele>
      </trkpt>
      <trkpt lat="43.29406" lon="-1.29086">
        <ele>827.2</ele>
      </trkpt>
      <trkpt lat="43.29403" lon="-1.29087">
        <ele>827.8</ele>
      </trkpt>
      <trkpt lat="43.29401" lon="-1.29088">
        <ele>828.2</ele>
      </trkpt>
      <trkpt lat="43.29399" lon="-1.29089">
        <ele>828.6</ele>
      </trkpt>
      <trkpt lat="43.29397" lon="-1.2909">
        <ele>828.9</ele>
      </trkpt>
      <trkpt lat="43.29394" lon="-1.29089">
        <ele>829.9</ele>
      </trkpt>
      <trkpt lat="43.29392" lon="-1.29091">
        <ele>830.1</ele>
      </trkpt>
      <trkpt lat="43.29391" lon="-1.29091">
        <ele>830.3</ele>
      </trkpt>
      <trkpt lat="43.2939" lon="-1.29092">
        <ele>830.5</ele>
      </trkpt>
      <trkpt lat="43.29387" lon="-1.29093">
        <ele>831.2</ele>
      </trkpt>
      <trkpt lat="43.29385" lon="-1.29093">
        <ele>831.7</ele>
      </trkpt>
      <trkpt lat="43.29383" lon="-1.29094">
        <ele>832.2</ele>
      </trkpt>
      <trkpt lat="43.2938" lon="-1.29096">
        <ele>832.7</ele>
      </trkpt>
      <trkpt lat="43.29377" lon="-1.29096">
        <ele>833.6</ele>
      </trkpt>
      <trkpt lat="43.29374" lon="-1.29097">
        <ele>834.3</ele>
      </trkpt>
      <trkpt lat="43.29372" lon="-1.29098">
        <ele>834.8</ele>
      </trkpt>
      <trkpt lat="43.29371" lon="-1.29099">
        <ele>834.9</ele>
      </trkpt>
      <trkpt lat="43.29369" lon="-1.291">
        <ele>835.3</ele>
      </trkpt>
      <trkpt lat="43.29366" lon="-1.29101">
        <ele>836</ele>
      </trkpt>
      <trkpt lat="43.29364" lon="-1.29102">
        <ele>836.5</ele>
      </trkpt>
      <trkpt lat="43.29362" lon="-1.29103">
        <ele>836.9</ele>
      </trkpt>
      <trkpt lat="43.29359" lon="-1.29104">
        <ele>837.6</ele>
      </trkpt>
      <trkpt lat="43.29356" lon="-1.29106">
        <ele>838.1</ele>
      </trkpt>
      <trkpt lat="43.29355" lon="-1.29107">
        <ele>838.2</ele>
      </trkpt>
      <trkpt lat="43.29353" lon="-1.29108">
        <ele>838.5</ele>
      </trkpt>
      <trkpt lat="43.29351" lon="-1.29108">
        <ele>839</ele>
      </trkpt>
      <trkpt lat="43.29347" lon="-1.29109">
        <ele>839.9</ele>
      </trkpt>
      <trkpt lat="43.29342" lon="-1.29111">
        <ele>840.8</ele>
      </trkpt>
      <trkpt lat="43.29338" lon="-1.29112">
        <ele>841.7</ele>
      </trkpt>
      <trkpt lat="43.29335" lon="-1.29114">
        <ele>842.2</ele>
      </trkpt>
      <trkpt lat="43.29329" lon="-1.29115">
        <ele>843.5</ele>
      </trkpt>
      <trkpt lat="43.29324" lon="-1.29116">
        <ele>844.6</ele>
      </trkpt>
      <trkpt lat="43.29312" lon="-1.29118">
        <ele>847.2</ele>
      </trkpt>
      <trkpt lat="43.29308" lon="-1.29119">
        <ele>848</ele>
      </trkpt>
      <trkpt lat="43.29301" lon="-1.29119">
        <ele>849.3</ele>
      </trkpt>
      <trkpt lat="43.29292" lon="-1.29122">
        <ele>850.4</ele>
      </trkpt>
      <trkpt lat="43.29287" lon="-1.29124">
        <ele>851</ele>
      </trkpt>
      <trkpt lat="43.29283" lon="-1.29126">
        <ele>851.4</ele>
      </trkpt>
      <trkpt lat="43.29278" lon="-1.29129">
        <ele>852</ele>
      </trkpt>
      <trkpt lat="43.29275" lon="-1.29127">
        <ele>852.5</ele>
      </trkpt>
      <trkpt lat="43.29272" lon="-1.29127">
        <ele>852.6</ele>
      </trkpt>
      <trkpt lat="43.29269" lon="-1.29129">
        <ele>852.8</ele>
      </trkpt>
      <trkpt lat="43.29266" lon="-1.29132">
        <ele>853.2</ele>
      </trkpt>
      <trkpt lat="43.29261" lon="-1.29139">
        <ele>854.6</ele>
      </trkpt>
      <trkpt lat="43.29256" lon="-1.29149">
        <ele>855.2</ele>
      </trkpt>
      <trkpt lat="43.2925" lon="-1.29158">
        <ele>856.3</ele>
      </trkpt>
      <trkpt lat="43.29239" lon="-1.29174">
        <ele>857.8</ele>
      </trkpt>
      <trkpt lat="43.29228" lon="-1.29187">
        <ele>858.7</ele>
      </trkpt>
      <trkpt lat="43.29218" lon="-1.29196">
        <ele>859.6</ele>
      </trkpt>
      <trkpt lat="43.29206" lon="-1.29204">
        <ele>861</ele>
      </trkpt>
      <trkpt lat="43.29194" lon="-1.29211">
        <ele>862.7</ele>
      </trkpt>
      <trkpt lat="43.29181" lon="-1.29218">
        <ele>864.4</ele>
      </trkpt>
      <trkpt lat="43.2917" lon="-1.29227">
        <ele>865.7</ele>
      </trkpt>
      <trkpt lat="43.29155" lon="-1.29237">
        <ele>868.1</ele>
      </trkpt>
      <trkpt lat="43.29145" lon="-1.29246">
        <ele>869.8</ele>
      </trkpt>
      <trkpt lat="43.29139" lon="-1.29251">
        <ele>870.9</ele>
      </trkpt>
      <trkpt lat="43.29136" lon="-1.29253">
        <ele>871.6</ele>
      </trkpt>
      <trkpt lat="43.2913" lon="-1.2926">
        <ele>872.8</ele>
      </trkpt>
      <trkpt lat="43.29126" lon="-1.29265">
        <ele>873.6</ele>
      </trkpt>
      <trkpt lat="43.29121" lon="-1.29271">
        <ele>874.6</ele>
      </trkpt>
      <trkpt lat="43.29114" lon="-1.29282">
        <ele>875.8</ele>
      </trkpt>
      <trkpt lat="43.29109" lon="-1.29288">
        <ele>877</ele>
      </trkpt>
      <trkpt lat="43.29104" lon="-1.29295">
        <ele>878.1</ele>
      </trkpt>
      <trkpt lat="43.29101" lon="-1.29298">
        <ele>878.8</ele>
      </trkpt>
      <trkpt lat="43.29098" lon="-1.29301">
        <ele>879.3</ele>
      </trkpt>
      <trkpt lat="43.29095" lon="-1.29302">
        <ele>880.1</ele>
      </trkpt>
      <trkpt lat="43.29093" lon="-1.29307">
        <ele>880</ele>
      </trkpt>
      <trkpt lat="43.2909" lon="-1.29311">
        <ele>880.3</ele>
      </trkpt>
      <trkpt lat="43.2909" lon="-1.29313">
        <ele>880.1</ele>
      </trkpt>
      <trkpt lat="43.29087" lon="-1.29317">
        <ele>880.4</ele>
      </trkpt>
      <trkpt lat="43.29085" lon="-1.29319">
        <ele>880.6</ele>
      </trkpt>
      <trkpt lat="43.2908" lon="-1.29328">
        <ele>880.7</ele>
      </trkpt>
      <trkpt lat="43.29073" lon="-1.29335">
        <ele>881.3</ele>
        <extensions>
          <visugpx:TrkExtension xmlns:visugpx="https://www.visugpx.com/editgpx/">
            <visugpx:node>2</visugpx:node>
            </visugpx:TrkExtension>
        </extensions>
      </trkpt>
      <trkpt lat="43.29073" lon="-1.29335">
        <ele>881.3</ele>
      </trkpt>
      <trkpt lat="43.29066" lon="-1.29343">
        <ele>881.8</ele>
      </trkpt>
      <trkpt lat="43.2906" lon="-1.29349">
        <ele>882.5</ele>
      </trkpt>
      <trkpt lat="43.29058" lon="-1.2935">
        <ele>882.9</ele>
      </trkpt>
      <trkpt lat="43.29054" lon="-1.29352">
        <ele>883.7</ele>
      </trkpt>
      <trkpt lat="43.29048" lon="-1.29355">
        <ele>885.1</ele>
      </trkpt>
      <trkpt lat="43.29043" lon="-1.29359">
        <ele>886.2</ele>
      </trkpt>
      <trkpt lat="43.29038" lon="-1.29364">
        <ele>887.4</ele>
      </trkpt>
      <trkpt lat="43.29033" lon="-1.29371">
        <ele>888.2</ele>
      </trkpt>
      <trkpt lat="43.29029" lon="-1.29379">
        <ele>888.7</ele>
      </trkpt>
      <trkpt lat="43.29025" lon="-1.29386">
        <ele>887.5</ele>
      </trkpt>
      <trkpt lat="43.29024" lon="-1.2939">
        <ele>886.8</ele>
      </trkpt>
      <trkpt lat="43.29022" lon="-1.29395">
        <ele>886</ele>
      </trkpt>
      <trkpt lat="43.2902" lon="-1.29401">
        <ele>885.4</ele>
      </trkpt>
      <trkpt lat="43.2902" lon="-1.29405">
        <ele>885.3</ele>
      </trkpt>
      <trkpt lat="43.29021" lon="-1.29407">
        <ele>885.4</ele>
      </trkpt>
      <trkpt lat="43.2902" lon="-1.2941">
        <ele>885.2</ele>
      </trkpt>
      <trkpt lat="43.29021" lon="-1.29414">
        <ele>885.1</ele>
      </trkpt>
      <trkpt lat="43.29021" lon="-1.29417">
        <ele>884.9</ele>
      </trkpt>
      <trkpt lat="43.29019" lon="-1.29421">
        <ele>884.3</ele>
      </trkpt>
      <trkpt lat="43.29016" lon="-1.29425">
        <ele>883.8</ele>
      </trkpt>
      <trkpt lat="43.29013" lon="-1.29428">
        <ele>883.6</ele>
      </trkpt>
      <trkpt lat="43.2901" lon="-1.2943">
        <ele>883.7</ele>
      </trkpt>
      <trkpt lat="43.29007" lon="-1.2943">
        <ele>883.9</ele>
      </trkpt>
      <trkpt lat="43.29006" lon="-1.29433">
        <ele>883.8</ele>
      </trkpt>
      <trkpt lat="43.29005" lon="-1.29438">
        <ele>883.5</ele>
      </trkpt>
      <trkpt lat="43.29003" lon="-1.29444">
        <ele>883.5</ele>
      </trkpt>
      <trkpt lat="43.29003" lon="-1.29449">
        <ele>882.6</ele>
      </trkpt>
      <trkpt lat="43.29" lon="-1.29456">
        <ele>881.9</ele>
      </trkpt>
      <trkpt lat="43.28995" lon="-1.29463">
        <ele>878.5</ele>
      </trkpt>
      <trkpt lat="43.28991" lon="-1.2947">
        <ele>876.3</ele>
      </trkpt>
      <trkpt lat="43.28985" lon="-1.29482">
        <ele>873.4</ele>
      </trkpt>
      <trkpt lat="43.28982" lon="-1.29489">
        <ele>872.5</ele>
      </trkpt>
      <trkpt lat="43.28979" lon="-1.29497">
        <ele>872</ele>
      </trkpt>
      <trkpt lat="43.28978" lon="-1.29501">
        <ele>871.8</ele>
      </trkpt>
      <trkpt lat="43.28951" lon="-1.29536">
        <ele>862.7</ele>
      </trkpt>
      <trkpt lat="43.28937" lon="-1.29553">
        <ele>858.1</ele>
      </trkpt>
      <trkpt lat="43.28923" lon="-1.29561">
        <ele>855.1</ele>
      </trkpt>
      <trkpt lat="43.289" lon="-1.29584">
        <ele>854</ele>
      </trkpt>
      <trkpt lat="43.28885" lon="-1.29598">
        <ele>851.1</ele>
      </trkpt>
      <trkpt lat="43.28866" lon="-1.29608">
        <ele>848.9</ele>
      </trkpt>
      <trkpt lat="43.28847" lon="-1.29618">
        <ele>846.5</ele>
      </trkpt>
      <trkpt lat="43.28833" lon="-1.29621">
        <ele>844.6</ele>
      </trkpt>
      <trkpt lat="43.28787" lon="-1.29619">
        <ele>838.9</ele>
      </trkpt>
      <trkpt lat="43.28716" lon="-1.29616">
        <ele>828</ele>
      </trkpt>
      <trkpt lat="43.28696" lon="-1.2961">
        <ele>824.1</ele>
      </trkpt>
      <trkpt lat="43.2868" lon="-1.29598">
        <ele>820.5</ele>
      </trkpt>
      <trkpt lat="43.28654" lon="-1.29586">
        <ele>819.4</ele>
      </trkpt>
      <trkpt lat="43.28642" lon="-1.2958">
        <ele>818.5</ele>
      </trkpt>
      <trkpt lat="43.2863" lon="-1.29581">
        <ele>818.7</ele>
      </trkpt>
      <trkpt lat="43.28616" lon="-1.29615">
        <ele>814.6</ele>
      </trkpt>
      <trkpt lat="43.28608" lon="-1.29648">
        <ele>809.2</ele>
      </trkpt>
      <trkpt lat="43.2861" lon="-1.29661">
        <ele>806.9</ele>
        <extensions>
          <visugpx:TrkExtension xmlns:visugpx="https://www.visugpx.com/editgpx/">
            <visugpx:node>3</visugpx:node>
            </visugpx:TrkExtension>
        </extensions>
      </trkpt>
      <trkpt lat="43.28633" lon="-1.29695">
        <ele>802.2</ele>
      </trkpt>
      <trkpt lat="43.28643" lon="-1.2971">
        <ele>800.2</ele>
      </trkpt>
      <trkpt lat="43.28667" lon="-1.29752">
        <ele>794.5</ele>
      </trkpt>
      <trkpt lat="43.28678" lon="-1.29772">
        <ele>791.3</ele>
      </trkpt>
      <trkpt lat="43.28688" lon="-1.29805">
        <ele>786</ele>
      </trkpt>
      <trkpt lat="43.28703" lon="-1.29843">
        <ele>780.5</ele>
      </trkpt>
      <trkpt lat="43.28719" lon="-1.29876">
        <ele>776.1</ele>
      </trkpt>
      <trkpt lat="43.28719" lon="-1.29877">
        <ele>775.9</ele>
      </trkpt>
      <trkpt lat="43.2873" lon="-1.29901">
        <ele>772.5</ele>
      </trkpt>
      <trkpt lat="43.2874" lon="-1.29936">
        <ele>766.4</ele>
      </trkpt>
      <trkpt lat="43.28746" lon="-1.29956">
        <ele>762.9</ele>
      </trkpt>
      <trkpt lat="43.28754" lon="-1.29972">
        <ele>760.3</ele>
      </trkpt>
      <trkpt lat="43.28769" lon="-1.29993">
        <ele>756.9</ele>
      </trkpt>
      <trkpt lat="43.2879" lon="-1.30018">
        <ele>751.9</ele>
      </trkpt>
      <trkpt lat="43.2881" lon="-1.30037">
        <ele>747.7</ele>
      </trkpt>
      <trkpt lat="43.28828" lon="-1.30056">
        <ele>742.9</ele>
      </trkpt>
      <trkpt lat="43.28851" lon="-1.30069">
        <ele>738.2</ele>
      </trkpt>
      <trkpt lat="43.2888" lon="-1.30092">
        <ele>729.6</ele>
      </trkpt>
      <trkpt lat="43.28908" lon="-1.30114">
        <ele>721.4</ele>
      </trkpt>
      <trkpt lat="43.28927" lon="-1.30127">
        <ele>716.9</ele>
      </trkpt>
      <trkpt lat="43.28979" lon="-1.30155">
        <ele>708.4</ele>
      </trkpt>
      <trkpt lat="43.29017" lon="-1.30179">
        <ele>697.5</ele>
      </trkpt>
      <trkpt lat="43.29107" lon="-1.30235">
        <ele>673.9</ele>
      </trkpt>
      <trkpt lat="43.29141" lon="-1.30265">
        <ele>664.8</ele>
      </trkpt>
      <trkpt lat="43.29177" lon="-1.30296">
        <ele>657.4</ele>
      </trkpt>
      <trkpt lat="43.29205" lon="-1.30327">
        <ele>650.2</ele>
      </trkpt>
      <trkpt lat="43.29229" lon="-1.30372">
        <ele>638.4</ele>
      </trkpt>
      <trkpt lat="43.29249" lon="-1.30418">
        <ele>627.5</ele>
      </trkpt>
      <trkpt lat="43.29261" lon="-1.30459">
        <ele>619.9</ele>
      </trkpt>
      <trkpt lat="43.29266" lon="-1.30472">
        <ele>618.1</ele>
        <extensions>
          <visugpx:TrkExtension xmlns:visugpx="https://www.visugpx.com/editgpx/">
            <visugpx:node>4</visugpx:node>
            </visugpx:TrkExtension>
        </extensions>
      </trkpt>
      <trkpt lat="43.29274" lon="-1.30491">
        <ele>615.4</ele>
      </trkpt>
      <trkpt lat="43.29285" lon="-1.30508">
        <ele>612.5</ele>
      </trkpt>
      <trkpt lat="43.293" lon="-1.30523">
        <ele>609.2</ele>
      </trkpt>
      <trkpt lat="43.29304" lon="-1.30526">
        <ele>608.4</ele>
      </trkpt>
      <trkpt lat="43.29309" lon="-1.3053">
        <ele>607.1</ele>
      </trkpt>
      <trkpt lat="43.29311" lon="-1.30536">
        <ele>605.3</ele>
      </trkpt>
      <trkpt lat="43.29312" lon="-1.30541">
        <ele>604</ele>
      </trkpt>
      <trkpt lat="43.29314" lon="-1.30547">
        <ele>602.2</ele>
      </trkpt>
      <trkpt lat="43.29319" lon="-1.30553">
        <ele>600.2</ele>
      </trkpt>
      <trkpt lat="43.29327" lon="-1.30564">
        <ele>596.3</ele>
      </trkpt>
      <trkpt lat="43.29332" lon="-1.30568">
        <ele>594.6</ele>
      </trkpt>
      <trkpt lat="43.29341" lon="-1.3057">
        <ele>592.7</ele>
      </trkpt>
      <trkpt lat="43.29345" lon="-1.30588">
        <ele>586.8</ele>
      </trkpt>
      <trkpt lat="43.29346" lon="-1.30604">
        <ele>581.5</ele>
      </trkpt>
      <trkpt lat="43.29347" lon="-1.30616">
        <ele>577.4</ele>
      </trkpt>
      <trkpt lat="43.29355" lon="-1.30631">
        <ele>571.3</ele>
      </trkpt>
      <trkpt lat="43.29364" lon="-1.30647">
        <ele>565.3</ele>
      </trkpt>
      <trkpt lat="43.29376" lon="-1.3067">
        <ele>556.8</ele>
      </trkpt>
      <trkpt lat="43.29389" lon="-1.30695">
        <ele>546.8</ele>
      </trkpt>
      <trkpt lat="43.29398" lon="-1.30715">
        <ele>539.4</ele>
      </trkpt>
      <trkpt lat="43.294" lon="-1.3072">
        <ele>537.5</ele>
      </trkpt>
      <trkpt lat="43.29407" lon="-1.30735">
        <ele>532.2</ele>
      </trkpt>
      <trkpt lat="43.2941" lon="-1.30749">
        <ele>527.8</ele>
      </trkpt>
      <trkpt lat="43.29416" lon="-1.30767">
        <ele>521.5</ele>
      </trkpt>
      <trkpt lat="43.29423" lon="-1.30783">
        <ele>516</ele>
      </trkpt>
      <trkpt lat="43.29423" lon="-1.30787">
        <ele>514.9</ele>
      </trkpt>
      <trkpt lat="43.29425" lon="-1.30794">
        <ele>512.7</ele>
      </trkpt>
      <trkpt lat="43.29429" lon="-1.30807">
        <ele>508.7</ele>
      </trkpt>
      <trkpt lat="43.29434" lon="-1.30822">
        <ele>503.8</ele>
      </trkpt>
      <trkpt lat="43.2944" lon="-1.30837">
        <ele>499.1</ele>
      </trkpt>
      <trkpt lat="43.29445" lon="-1.30848">
        <ele>495.8</ele>
      </trkpt>
      <trkpt lat="43.29446" lon="-1.30858">
        <ele>492.8</ele>
      </trkpt>
      <trkpt lat="43.29446" lon="-1.30872">
        <ele>488.8</ele>
      </trkpt>
      <trkpt lat="43.29447" lon="-1.30884">
        <ele>485.3</ele>
      </trkpt>
      <trkpt lat="43.29448" lon="-1.30896">
        <ele>481.8</ele>
      </trkpt>
      <trkpt lat="43.29449" lon="-1.30904">
        <ele>479.5</ele>
      </trkpt>
      <trkpt lat="43.29446" lon="-1.30914">
        <ele>476.7</ele>
      </trkpt>
      <trkpt lat="43.29447" lon="-1.30923">
        <ele>474.3</ele>
      </trkpt>
      <trkpt lat="43.2945" lon="-1.30934">
        <ele>471.4</ele>
      </trkpt>
      <trkpt lat="43.29457" lon="-1.30948">
        <ele>467.7</ele>
      </trkpt>
      <trkpt lat="43.29462" lon="-1.3096">
        <ele>464.8</ele>
      </trkpt>
      <trkpt lat="43.29468" lon="-1.30969">
        <ele>462.7</ele>
      </trkpt>
      <trkpt lat="43.29474" lon="-1.30986">
        <ele>460.5</ele>
      </trkpt>
      <trkpt lat="43.29478" lon="-1.31007">
        <ele>458.3</ele>
      </trkpt>
      <trkpt lat="43.29485" lon="-1.31032">
        <ele>456.4</ele>
      </trkpt>
      <trkpt lat="43.29492" lon="-1.3105">
        <ele>456.1</ele>
      </trkpt>
      <trkpt lat="43.29506" lon="-1.31073">
        <ele>457</ele>
      </trkpt>
      <trkpt lat="43.29523" lon="-1.31091">
        <ele>459.7</ele>
      </trkpt>
      <trkpt lat="43.29532" lon="-1.31099">
        <ele>461.1</ele>
      </trkpt>
      <trkpt lat="43.29535" lon="-1.31104">
        <ele>461.8</ele>
      </trkpt>
      <trkpt lat="43.29538" lon="-1.31122">
        <ele>462.2</ele>
      </trkpt>
      <trkpt lat="43.29538" lon="-1.31131">
        <ele>461.6</ele>
      </trkpt>
      <trkpt lat="43.29533" lon="-1.31141">
        <ele>462</ele>
      </trkpt>
      <trkpt lat="43.29525" lon="-1.31151">
        <ele>462</ele>
      </trkpt>
      <trkpt lat="43.29517" lon="-1.31161">
        <ele>462</ele>
      </trkpt>
      <trkpt lat="43.29507" lon="-1.31176">
        <ele>461.4</ele>
      </trkpt>
      <trkpt lat="43.29497" lon="-1.31199">
        <ele>458.8</ele>
      </trkpt>
      <trkpt lat="43.29487" lon="-1.31225">
        <ele>455.2</ele>
      </trkpt>
      <trkpt lat="43.29475" lon="-1.31252">
        <ele>452</ele>
      </trkpt>
      <trkpt lat="43.29462" lon="-1.31275">
        <ele>449.5</ele>
      </trkpt>
      <trkpt lat="43.29457" lon="-1.31286">
        <ele>448.8</ele>
      </trkpt>
      <trkpt lat="43.29458" lon="-1.31293">
        <ele>447.9</ele>
      </trkpt>
      <trkpt lat="43.29459" lon="-1.31298">
        <ele>447.2</ele>
      </trkpt>
      <trkpt lat="43.29461" lon="-1.31302">
        <ele>446.6</ele>
      </trkpt>
      <trkpt lat="43.29465" lon="-1.31304">
        <ele>445.9</ele>
      </trkpt>
      <trkpt lat="43.29469" lon="-1.31307">
        <ele>445.5</ele>
      </trkpt>
      <trkpt lat="43.29481" lon="-1.313">
        <ele>445.7</ele>
      </trkpt>
      <trkpt lat="43.29487" lon="-1.31297">
        <ele>445.7</ele>
        <extensions>
          <visugpx:TrkExtension xmlns:visugpx="https://www.visugpx.com/editgpx/">
            <visugpx:node>5</visugpx:node>
            </visugpx:TrkExtension>
        </extensions>
      </trkpt>
      <trkpt lat="43.29497" lon="-1.31294">
        <ele>445.4</ele>
      </trkpt>
      <trkpt lat="43.29506" lon="-1.31293">
        <ele>444.7</ele>
      </trkpt>
      <trkpt lat="43.29509" lon="-1.31293">
        <ele>444.4</ele>
      </trkpt>
      <trkpt lat="43.29512" lon="-1.31294">
        <ele>444.2</ele>
      </trkpt>
      <trkpt lat="43.29512" lon="-1.31304">
        <ele>444.4</ele>
      </trkpt>
      <trkpt lat="43.29511" lon="-1.31308">
        <ele>444.9</ele>
      </trkpt>
      <trkpt lat="43.2951" lon="-1.31312">
        <ele>445.6</ele>
      </trkpt>
      <trkpt lat="43.29509" lon="-1.31319">
        <ele>446.7</ele>
      </trkpt>
      <trkpt lat="43.29509" lon="-1.31322">
        <ele>447</ele>
      </trkpt>
      <trkpt lat="43.29509" lon="-1.31326">
        <ele>447.5</ele>
      </trkpt>
      <trkpt lat="43.29512" lon="-1.3133">
        <ele>447.4</ele>
      </trkpt>
      <trkpt lat="43.29519" lon="-1.31333">
        <ele>446.5</ele>
      </trkpt>
      <trkpt lat="43.29522" lon="-1.31337">
        <ele>447</ele>
      </trkpt>
      <trkpt lat="43.29526" lon="-1.31339">
        <ele>446.9</ele>
      </trkpt>
      <trkpt lat="43.29532" lon="-1.31339">
        <ele>446.4</ele>
      </trkpt>
      <trkpt lat="43.29538" lon="-1.31338">
        <ele>445.7</ele>
      </trkpt>
      <trkpt lat="43.29555" lon="-1.31336">
        <ele>443.9</ele>
      </trkpt>
      <trkpt lat="43.29564" lon="-1.31335">
        <ele>442.5</ele>
      </trkpt>
      <trkpt lat="43.29571" lon="-1.31336">
        <ele>441.9</ele>
      </trkpt>
      <trkpt lat="43.29576" lon="-1.3134">
        <ele>442.1</ele>
      </trkpt>
      <trkpt lat="43.29584" lon="-1.31348">
        <ele>441.9</ele>
      </trkpt>
      <trkpt lat="43.29589" lon="-1.31357">
        <ele>441.7</ele>
      </trkpt>
      <trkpt lat="43.29597" lon="-1.31368">
        <ele>442.4</ele>
      </trkpt>
      <trkpt lat="43.29606" lon="-1.31372">
        <ele>441.3</ele>
      </trkpt>
      <trkpt lat="43.29617" lon="-1.31373">
        <ele>439.7</ele>
      </trkpt>
      <trkpt lat="43.29632" lon="-1.31373">
        <ele>438.3</ele>
      </trkpt>
      <trkpt lat="43.29669" lon="-1.31363">
        <ele>431.8</ele>
      </trkpt>
      <trkpt lat="43.29694" lon="-1.31355">
        <ele>428.4</ele>
      </trkpt>
      <trkpt lat="43.29737" lon="-1.31337">
        <ele>424.8</ele>
      </trkpt>
      <trkpt lat="43.29756" lon="-1.31335">
        <ele>425.3</ele>
      </trkpt>
      <trkpt lat="43.29758" lon="-1.31332">
        <ele>424.2</ele>
      </trkpt>
      <trkpt lat="43.29762" lon="-1.31328">
        <ele>422.5</ele>
      </trkpt>
      <trkpt lat="43.29772" lon="-1.31326">
        <ele>421.7</ele>
      </trkpt>
      <trkpt lat="43.29782" lon="-1.31326">
        <ele>421.1</ele>
      </trkpt>
      <trkpt lat="43.29799" lon="-1.31328">
        <ele>419.7</ele>
      </trkpt>
      <trkpt lat="43.29819" lon="-1.31332">
        <ele>417.3</ele>
      </trkpt>
      <trkpt lat="43.29858" lon="-1.31334">
        <ele>409</ele>
      </trkpt>
      <trkpt lat="43.29877" lon="-1.31336">
        <ele>405.3</ele>
      </trkpt>
      <trkpt lat="43.29908" lon="-1.31329">
        <ele>397.1</ele>
      </trkpt>
      <trkpt lat="43.29931" lon="-1.3132">
        <ele>389.3</ele>
      </trkpt>
      <trkpt lat="43.29958" lon="-1.313">
        <ele>379.6</ele>
      </trkpt>
      <trkpt lat="43.29965" lon="-1.31296">
        <ele>377.8</ele>
      </trkpt>
      <trkpt lat="43.2997" lon="-1.31294">
        <ele>377</ele>
      </trkpt>
      <trkpt lat="43.29976" lon="-1.31295">
        <ele>376.1</ele>
      </trkpt>
      <trkpt lat="43.29995" lon="-1.31295">
        <ele>370.9</ele>
      </trkpt>
      <trkpt lat="43.30017" lon="-1.31291">
        <ele>363.7</ele>
      </trkpt>
      <trkpt lat="43.30032" lon="-1.31288">
        <ele>358.5</ele>
      </trkpt>
      <trkpt lat="43.3005" lon="-1.31276">
        <ele>353.7</ele>
      </trkpt>
      <trkpt lat="43.30058" lon="-1.31274">
        <ele>351</ele>
      </trkpt>
      <trkpt lat="43.30073" lon="-1.3127">
        <ele>347</ele>
      </trkpt>
      <trkpt lat="43.3011" lon="-1.31261">
        <ele>335.5</ele>
      </trkpt>
      <trkpt lat="43.30125" lon="-1.31255">
        <ele>331.6</ele>
      </trkpt>
      <trkpt lat="43.30137" lon="-1.31246">
        <ele>329.3</ele>
      </trkpt>
      <trkpt lat="43.30147" lon="-1.31236">
        <ele>327.5</ele>
      </trkpt>
      <trkpt lat="43.30154" lon="-1.31232">
        <ele>326.5</ele>
      </trkpt>
      <trkpt lat="43.30169" lon="-1.31228">
        <ele>324.2</ele>
      </trkpt>
      <trkpt lat="43.30198" lon="-1.31214">
        <ele>319.9</ele>
      </trkpt>
      <trkpt lat="43.3024" lon="-1.31195">
        <ele>314.7</ele>
      </trkpt>
      <trkpt lat="43.3027" lon="-1.31179">
        <ele>310.4</ele>
      </trkpt>
      <trkpt lat="43.30302" lon="-1.31168">
        <ele>309</ele>
      </trkpt>
      <trkpt lat="43.30323" lon="-1.3116">
        <ele>307.5</ele>
      </trkpt>
      <trkpt lat="43.30344" lon="-1.31147">
        <ele>306</ele>
      </trkpt>
      <trkpt lat="43.30362" lon="-1.31137">
        <ele>304.6</ele>
      </trkpt>
      <trkpt lat="43.30377" lon="-1.31131">
        <ele>301</ele>
      </trkpt>
      <trkpt lat="43.3039" lon="-1.31131">
        <ele>298.5</ele>
      </trkpt>
      <trkpt lat="43.304" lon="-1.31135">
        <ele>296.2</ele>
      </trkpt>
      <trkpt lat="43.3041" lon="-1.31143">
        <ele>293.4</ele>
      </trkpt>
      <trkpt lat="43.30417" lon="-1.31153">
        <ele>290.9</ele>
      </trkpt>
      <trkpt lat="43.30423" lon="-1.31166">
        <ele>288.7</ele>
      </trkpt>
      <trkpt lat="43.30431" lon="-1.31181">
        <ele>286.7</ele>
      </trkpt>
      <trkpt lat="43.30442" lon="-1.31193">
        <ele>286</ele>
      </trkpt>
      <trkpt lat="43.30456" lon="-1.31203">
        <ele>285.5</ele>
      </trkpt>
      <trkpt lat="43.30465" lon="-1.31207">
        <ele>285.5</ele>
      </trkpt>
      <trkpt lat="43.30469" lon="-1.31209">
        <ele>285.5</ele>
      </trkpt>
      <trkpt lat="43.30485" lon="-1.31211">
        <ele>285.7</ele>
      </trkpt>
      <trkpt lat="43.30501" lon="-1.3121">
        <ele>285.7</ele>
      </trkpt>
      <trkpt lat="43.30518" lon="-1.31208">
        <ele>286.5</ele>
      </trkpt>
      <trkpt lat="43.30536" lon="-1.31202">
        <ele>286</ele>
      </trkpt>
      <trkpt lat="43.30542" lon="-1.31195">
        <ele>285.5</ele>
      </trkpt>
      <trkpt lat="43.30551" lon="-1.31185">
        <ele>283.6</ele>
      </trkpt>
      <trkpt lat="43.30561" lon="-1.31172">
        <ele>281.7</ele>
      </trkpt>
      <trkpt lat="43.30568" lon="-1.31165">
        <ele>280.3</ele>
      </trkpt>
      <trkpt lat="43.30574" lon="-1.31163">
        <ele>279.3</ele>
      </trkpt>
      <trkpt lat="43.30571" lon="-1.31155">
        <ele>278</ele>
      </trkpt>
      <trkpt lat="43.30568" lon="-1.3115">
        <ele>277.3</ele>
        <extensions>
          <visugpx:TrkExtension xmlns:visugpx="https://www.visugpx.com/editgpx/">
            <visugpx:node>6</visugpx:node>
            </visugpx:TrkExtension>
        </extensions>
      </trkpt>
      <trkpt lat="43.30571" lon="-1.31155">
        <ele>278</ele>
      </trkpt>
      <trkpt lat="43.30574" lon="-1.31163">
        <ele>279.3</ele>
      </trkpt>
      <trkpt lat="43.30583" lon="-1.31163">
        <ele>278.4</ele>
      </trkpt>
      <trkpt lat="43.30593" lon="-1.31165">
        <ele>276.6</ele>
      </trkpt>
      <trkpt lat="43.30609" lon="-1.31172">
        <ele>273.8</ele>
      </trkpt>
      <trkpt lat="43.30625" lon="-1.31178">
        <ele>270.5</ele>
      </trkpt>
      <trkpt lat="43.30635" lon="-1.3118">
        <ele>268.4</ele>
      </trkpt>
      <trkpt lat="43.30652" lon="-1.31177">
        <ele>264.8</ele>
      </trkpt>
      <trkpt lat="43.30699" lon="-1.31168">
        <ele>254.2</ele>
      </trkpt>
      <trkpt lat="43.30733" lon="-1.31164">
        <ele>245.5</ele>
      </trkpt>
      <trkpt lat="43.30739" lon="-1.31167">
        <ele>244.2</ele>
      </trkpt>
      <trkpt lat="43.3075" lon="-1.31172">
        <ele>241.6</ele>
      </trkpt>
      <trkpt lat="43.3076" lon="-1.31174">
        <ele>238.7</ele>
      </trkpt>
      <trkpt lat="43.30771" lon="-1.31174">
        <ele>235.3</ele>
      </trkpt>
      <trkpt lat="43.30776" lon="-1.31174">
        <ele>233.8</ele>
      </trkpt>
      <trkpt lat="43.30788" lon="-1.3117">
        <ele>231.3</ele>
      </trkpt>
      <trkpt lat="43.308" lon="-1.31162">
        <ele>228.5</ele>
      </trkpt>
      <trkpt lat="43.30809" lon="-1.31151">
        <ele>226.1</ele>
      </trkpt>
      <trkpt lat="43.30816" lon="-1.31136">
        <ele>223.9</ele>
      </trkpt>
      <trkpt lat="43.30844" lon="-1.31074">
        <ele>216.7</ele>
      </trkpt>
      <trkpt lat="43.30853" lon="-1.3105">
        <ele>215.3</ele>
      </trkpt>
      <trkpt lat="43.30856" lon="-1.31033">
        <ele>214</ele>
      </trkpt>
      <trkpt lat="43.30858" lon="-1.31018">
        <ele>212.6</ele>
      </trkpt>
      <trkpt lat="43.30862" lon="-1.31011">
        <ele>212</ele>
      </trkpt>
      <trkpt lat="43.30868" lon="-1.31009">
        <ele>210.8</ele>
      </trkpt>
      <trkpt lat="43.30875" lon="-1.3101">
        <ele>209.8</ele>
      </trkpt>
      <trkpt lat="43.30887" lon="-1.31016">
        <ele>208.6</ele>
      </trkpt>
      <trkpt lat="43.30899" lon="-1.3102">
        <ele>206.8</ele>
      </trkpt>
      <trkpt lat="43.30927" lon="-1.31023">
        <ele>202.3</ele>
      </trkpt>
      <trkpt lat="43.30935" lon="-1.31024">
        <ele>201.4</ele>
      </trkpt>
      <trkpt lat="43.30954" lon="-1.31031">
        <ele>199.1</ele>
      </trkpt>
      <trkpt lat="43.31001" lon="-1.31048">
        <ele>190.2</ele>
      </trkpt>
      <trkpt lat="43.31023" lon="-1.31057">
        <ele>186</ele>
      </trkpt>
      <trkpt lat="43.31033" lon="-1.31059">
        <ele>184.2</ele>
      </trkpt>
      <trkpt lat="43.31043" lon="-1.31057">
        <ele>182.8</ele>
      </trkpt>
      <trkpt lat="43.31085" lon="-1.31047">
        <ele>175.8</ele>
      </trkpt>
      <trkpt lat="43.31113" lon="-1.3104">
        <ele>172.3</ele>
      </trkpt>
      <trkpt lat="43.3112" lon="-1.31038">
        <ele>171.6</ele>
      </trkpt>
      <trkpt lat="43.31112" lon="-1.31018">
        <ele>172.3</ele>
      </trkpt>
      <trkpt lat="43.31111" lon="-1.31015">
        <ele>172.5</ele>
        <extensions>
          <visugpx:TrkExtension xmlns:visugpx="https://www.visugpx.com/editgpx/">
            <visugpx:node>7</visugpx:node>
            </visugpx:TrkExtension>
        </extensions>
      </trkpt>
      <trkpt lat="43.31092" lon="-1.30978">
        <ele>173.8</ele>
      </trkpt>
      <trkpt lat="43.31074" lon="-1.30939">
        <ele>176.9</ele>
      </trkpt>
      <trkpt lat="43.31057" lon="-1.30904">
        <ele>178.3</ele>
      </trkpt>
      <trkpt lat="43.31036" lon="-1.30862">
        <ele>179.4</ele>
      </trkpt>
      <trkpt lat="43.31034" lon="-1.30855">
        <ele>179.6</ele>
      </trkpt>
      <trkpt lat="43.31034" lon="-1.30849">
        <ele>179.6</ele>
      </trkpt>
      <trkpt lat="43.31035" lon="-1.30845">
        <ele>179.5</ele>
      </trkpt>
      <trkpt lat="43.31033" lon="-1.3084">
        <ele>179.6</ele>
      </trkpt>
      <trkpt lat="43.31025" lon="-1.30833">
        <ele>180.2</ele>
      </trkpt>
      <trkpt lat="43.31021" lon="-1.30825">
        <ele>180.5</ele>
      </trkpt>
      <trkpt lat="43.31012" lon="-1.30806">
        <ele>181.1</ele>
      </trkpt>
      <trkpt lat="43.30999" lon="-1.3078">
        <ele>182</ele>
      </trkpt>
      <trkpt lat="43.30987" lon="-1.30767">
        <ele>182.5</ele>
      </trkpt>
      <trkpt lat="43.3098" lon="-1.30763">
        <ele>182.7</ele>
      </trkpt>
      <trkpt lat="43.30975" lon="-1.30761">
        <ele>182.9</ele>
      </trkpt>
      <trkpt lat="43.30972" lon="-1.3076">
        <ele>183</ele>
      </trkpt>
      <trkpt lat="43.30969" lon="-1.30759">
        <ele>183.2</ele>
      </trkpt>
      <trkpt lat="43.30964" lon="-1.30758">
        <ele>183.4</ele>
      </trkpt>
      <trkpt lat="43.30958" lon="-1.30756">
        <ele>183.6</ele>
      </trkpt>
      <trkpt lat="43.30949" lon="-1.30753">
        <ele>183.9</ele>
      </trkpt>
      <trkpt lat="43.30938" lon="-1.30742">
        <ele>184.9</ele>
      </trkpt>
      <trkpt lat="43.30925" lon="-1.30727">
        <ele>185.9</ele>
      </trkpt>
      <trkpt lat="43.30919" lon="-1.30724">
        <ele>186</ele>
      </trkpt>
      <trkpt lat="43.30904" lon="-1.30683">
        <ele>195.3</ele>
      </trkpt>
      <trkpt lat="43.309" lon="-1.30673">
        <ele>197.2</ele>
      </trkpt>
      <trkpt lat="43.30895" lon="-1.30664">
        <ele>198.5</ele>
      </trkpt>
      <trkpt lat="43.30884" lon="-1.30654">
        <ele>199.1</ele>
      </trkpt>
      <trkpt lat="43.30873" lon="-1.30644">
        <ele>199.8</ele>
      </trkpt>
      <trkpt lat="43.30865" lon="-1.30637">
        <ele>200.4</ele>
      </trkpt>
      <trkpt lat="43.30864" lon="-1.30635">
        <ele>200.6</ele>
      </trkpt>
      <trkpt lat="43.30862" lon="-1.3063">
        <ele>201.3</ele>
      </trkpt>
      <trkpt lat="43.3086" lon="-1.30616">
        <ele>203</ele>
      </trkpt>
      <trkpt lat="43.30856" lon="-1.30606">
        <ele>203</ele>
      </trkpt>
      <trkpt lat="43.30851" lon="-1.30591">
        <ele>203.1</ele>
      </trkpt>
      <trkpt lat="43.30843" lon="-1.30559">
        <ele>207.5</ele>
      </trkpt>
      <trkpt lat="43.30836" lon="-1.30542">
        <ele>210.2</ele>
      </trkpt>
      <trkpt lat="43.30826" lon="-1.30509">
        <ele>212.8</ele>
      </trkpt>
      <trkpt lat="43.30817" lon="-1.30485">
        <ele>214.9</ele>
      </trkpt>
      <trkpt lat="43.30799" lon="-1.30457">
        <ele>216.8</ele>
      </trkpt>
      <trkpt lat="43.30785" lon="-1.30435">
        <ele>219.1</ele>
      </trkpt>
      <trkpt lat="43.30784" lon="-1.30433">
        <ele>219.3</ele>
      </trkpt>
      <trkpt lat="43.30773" lon="-1.30412">
        <ele>222.1</ele>
      </trkpt>
      <trkpt lat="43.30756" lon="-1.30385">
        <ele>226.8</ele>
      </trkpt>
      <trkpt lat="43.30738" lon="-1.30356">
        <ele>231.2</ele>
      </trkpt>
      <trkpt lat="43.30723" lon="-1.30334">
        <ele>234.8</ele>
      </trkpt>
      <trkpt lat="43.3071" lon="-1.30316">
        <ele>238.4</ele>
      </trkpt>
      <trkpt lat="43.30695" lon="-1.30293">
        <ele>241.9</ele>
      </trkpt>
      <trkpt lat="43.30679" lon="-1.30273">
        <ele>245.7</ele>
      </trkpt>
      <trkpt lat="43.30674" lon="-1.30261">
        <ele>246.5</ele>
      </trkpt>
      <trkpt lat="43.30668" lon="-1.30242">
        <ele>247.9</ele>
      </trkpt>
      <trkpt lat="43.30668" lon="-1.30242">
        <ele>247.9</ele>
      </trkpt>
      <trkpt lat="43.30667" lon="-1.30239">
        <ele>248.3</ele>
      </trkpt>
      <trkpt lat="43.30667" lon="-1.30238">
        <ele>248.3</ele>
      </trkpt>
      <trkpt lat="43.30663" lon="-1.30213">
        <ele>250.8</ele>
      </trkpt>
      <trkpt lat="43.30659" lon="-1.30186">
        <ele>254.8</ele>
      </trkpt>
      <trkpt lat="43.30658" lon="-1.30163">
        <ele>258.7</ele>
      </trkpt>
      <trkpt lat="43.30656" lon="-1.30138">
        <ele>262.8</ele>
      </trkpt>
      <trkpt lat="43.30651" lon="-1.30115">
        <ele>266.9</ele>
      </trkpt>
      <trkpt lat="43.30644" lon="-1.30084">
        <ele>271.8</ele>
      </trkpt>
      <trkpt lat="43.30635" lon="-1.30052">
        <ele>275.8</ele>
      </trkpt>
      <trkpt lat="43.3063" lon="-1.30038">
        <ele>276.5</ele>
      </trkpt>
      <trkpt lat="43.30625" lon="-1.3003">
        <ele>277.1</ele>
      </trkpt>
      <trkpt lat="43.30604" lon="-1.30004">
        <ele>278.6</ele>
      </trkpt>
      <trkpt lat="43.30587" lon="-1.29985">
        <ele>279.7</ele>
      </trkpt>
      <trkpt lat="43.30576" lon="-1.29975">
        <ele>281.2</ele>
      </trkpt>
      <trkpt lat="43.30571" lon="-1.29969">
        <ele>282</ele>
      </trkpt>
      <trkpt lat="43.30549" lon="-1.29945">
        <ele>286.9</ele>
      </trkpt>
      <trkpt lat="43.30539" lon="-1.29933">
        <ele>289</ele>
      </trkpt>
      <trkpt lat="43.30529" lon="-1.29917">
        <ele>291.6</ele>
      </trkpt>
      <trkpt lat="43.30526" lon="-1.29909">
        <ele>293</ele>
      </trkpt>
      <trkpt lat="43.30524" lon="-1.29902">
        <ele>294</ele>
      </trkpt>
      <trkpt lat="43.30522" lon="-1.29895">
        <ele>295.1</ele>
      </trkpt>
      <trkpt lat="43.30519" lon="-1.29887">
        <ele>296.6</ele>
      </trkpt>
      <trkpt lat="43.30517" lon="-1.29876">
        <ele>298.1</ele>
      </trkpt>
      <trkpt lat="43.30512" lon="-1.29868">
        <ele>300.2</ele>
      </trkpt>
      <trkpt lat="43.30508" lon="-1.29862">
        <ele>301.7</ele>
      </trkpt>
      <trkpt lat="43.30504" lon="-1.29855">
        <ele>303.6</ele>
      </trkpt>
      <trkpt lat="43.30495" lon="-1.29845">
        <ele>307.5</ele>
      </trkpt>
      <trkpt lat="43.30486" lon="-1.29836">
        <ele>312.1</ele>
      </trkpt>
      <trkpt lat="43.30478" lon="-1.29828">
        <ele>316.2</ele>
      </trkpt>
      <trkpt lat="43.30472" lon="-1.29823">
        <ele>318.8</ele>
      </trkpt>
      <trkpt lat="43.30468" lon="-1.29819">
        <ele>320.7</ele>
      </trkpt>
      <trkpt lat="43.30464" lon="-1.29815">
        <ele>322.8</ele>
      </trkpt>
      <trkpt lat="43.30461" lon="-1.2981">
        <ele>324.7</ele>
      </trkpt>
      <trkpt lat="43.30457" lon="-1.29808">
        <ele>326.8</ele>
      </trkpt>
      <trkpt lat="43.30451" lon="-1.29805">
        <ele>330</ele>
      </trkpt>
      <trkpt lat="43.30448" lon="-1.29803">
        <ele>331.7</ele>
      </trkpt>
      <trkpt lat="43.30443" lon="-1.298">
        <ele>333.8</ele>
      </trkpt>
      <trkpt lat="43.30438" lon="-1.29797">
        <ele>334.4</ele>
      </trkpt>
      <trkpt lat="43.30436" lon="-1.29791">
        <ele>335.7</ele>
      </trkpt>
      <trkpt lat="43.30433" lon="-1.29785">
        <ele>337.4</ele>
      </trkpt>
      <trkpt lat="43.30429" lon="-1.29781">
        <ele>338.9</ele>
      </trkpt>
      <trkpt lat="43.30424" lon="-1.29776">
        <ele>341</ele>
      </trkpt>
      <trkpt lat="43.3042" lon="-1.29771">
        <ele>342.8</ele>
      </trkpt>
      <trkpt lat="43.30417" lon="-1.29765">
        <ele>344.7</ele>
      </trkpt>
      <trkpt lat="43.30415" lon="-1.29758">
        <ele>346.4</ele>
      </trkpt>
      <trkpt lat="43.30409" lon="-1.29748">
        <ele>349</ele>
      </trkpt>
      <trkpt lat="43.30407" lon="-1.29739">
        <ele>351.2</ele>
      </trkpt>
      <trkpt lat="43.30404" lon="-1.2973">
        <ele>353.6</ele>
      </trkpt>
      <trkpt lat="43.30402" lon="-1.29717">
        <ele>356.9</ele>
      </trkpt>
      <trkpt lat="43.30399" lon="-1.29702">
        <ele>361.2</ele>
      </trkpt>
      <trkpt lat="43.30395" lon="-1.29688">
        <ele>365.6</ele>
      </trkpt>
      <trkpt lat="43.30394" lon="-1.29686">
        <ele>366.3</ele>
      </trkpt>
      <trkpt lat="43.30389" lon="-1.29678">
        <ele>369.7</ele>
      </trkpt>
      <trkpt lat="43.30384" lon="-1.29667">
        <ele>373.3</ele>
      </trkpt>
      <trkpt lat="43.30382" lon="-1.29662">
        <ele>374.5</ele>
      </trkpt>
      <trkpt lat="43.3038" lon="-1.29653">
        <ele>376.7</ele>
      </trkpt>
      <trkpt lat="43.30379" lon="-1.29646">
        <ele>378.4</ele>
      </trkpt>
      <trkpt lat="43.30375" lon="-1.29641">
        <ele>380</ele>
      </trkpt>
      <trkpt lat="43.30373" lon="-1.29635">
        <ele>381.5</ele>
      </trkpt>
      <trkpt lat="43.3037" lon="-1.29625">
        <ele>383.9</ele>
      </trkpt>
      <trkpt lat="43.30366" lon="-1.29619">
        <ele>385.6</ele>
      </trkpt>
      <trkpt lat="43.30364" lon="-1.29611">
        <ele>387.6</ele>
      </trkpt>
      <trkpt lat="43.30362" lon="-1.29601">
        <ele>390</ele>
      </trkpt>
      <trkpt lat="43.30361" lon="-1.2959">
        <ele>392.6</ele>
      </trkpt>
      <trkpt lat="43.30361" lon="-1.2958">
        <ele>394.5</ele>
      </trkpt>
      <trkpt lat="43.3036" lon="-1.29571">
        <ele>395.8</ele>
      </trkpt>
      <trkpt lat="43.30357" lon="-1.29558">
        <ele>398.1</ele>
      </trkpt>
      <trkpt lat="43.30355" lon="-1.29548">
        <ele>399.7</ele>
      </trkpt>
      <trkpt lat="43.30355" lon="-1.29539">
        <ele>400.8</ele>
      </trkpt>
      <trkpt lat="43.30356" lon="-1.29532">
        <ele>401.6</ele>
      </trkpt>
      <trkpt lat="43.30357" lon="-1.29526">
        <ele>402.1</ele>
      </trkpt>
      <trkpt lat="43.30358" lon="-1.29521">
        <ele>402.4</ele>
      </trkpt>
      <trkpt lat="43.30359" lon="-1.29515">
        <ele>402.8</ele>
      </trkpt>
      <trkpt lat="43.30359" lon="-1.29511">
        <ele>403.3</ele>
      </trkpt>
      <trkpt lat="43.3036" lon="-1.29507">
        <ele>403.5</ele>
      </trkpt>
      <trkpt lat="43.30362" lon="-1.29504">
        <ele>403.6</ele>
      </trkpt>
      <trkpt lat="43.30363" lon="-1.29501">
        <ele>403.9</ele>
      </trkpt>
      <trkpt lat="43.30365" lon="-1.29496">
        <ele>404.4</ele>
      </trkpt>
      <trkpt lat="43.30368" lon="-1.29491">
        <ele>405</ele>
      </trkpt>
      <trkpt lat="43.30368" lon="-1.29487">
        <ele>405.4</ele>
      </trkpt>
      <trkpt lat="43.30368" lon="-1.29481">
        <ele>406.1</ele>
      </trkpt>
      <trkpt lat="43.30367" lon="-1.29474">
        <ele>406.8</ele>
      </trkpt>
      <trkpt lat="43.30364" lon="-1.29466">
        <ele>408.1</ele>
      </trkpt>
      <trkpt lat="43.30357" lon="-1.29455">
        <ele>410.8</ele>
      </trkpt>
      <trkpt lat="43.3035" lon="-1.29449">
        <ele>412.9</ele>
      </trkpt>
      <trkpt lat="43.3034" lon="-1.29439">
        <ele>415.8</ele>
      </trkpt>
      <trkpt lat="43.30331" lon="-1.29432">
        <ele>418.2</ele>
      </trkpt>
      <trkpt lat="43.30325" lon="-1.29425">
        <ele>420</ele>
      </trkpt>
      <trkpt lat="43.30316" lon="-1.29415">
        <ele>421.9</ele>
      </trkpt>
      <trkpt lat="43.30312" lon="-1.29406">
        <ele>422.6</ele>
      </trkpt>
      <trkpt lat="43.3031" lon="-1.29402">
        <ele>423.2</ele>
      </trkpt>
      <trkpt lat="43.3031" lon="-1.294">
        <ele>423.2</ele>
      </trkpt>
      <trkpt lat="43.30311" lon="-1.29389">
        <ele>423.4</ele>
      </trkpt>
      <trkpt lat="43.3031" lon="-1.29381">
        <ele>424.3</ele>
      </trkpt>
      <trkpt lat="43.30311" lon="-1.29378">
        <ele>424.2</ele>
      </trkpt>
      <trkpt lat="43.30313" lon="-1.29372">
        <ele>424.1</ele>
      </trkpt>
      <trkpt lat="43.30315" lon="-1.2936">
        <ele>424.4</ele>
      </trkpt>
      <trkpt lat="43.30317" lon="-1.29345">
        <ele>426</ele>
      </trkpt>
      <trkpt lat="43.30319" lon="-1.29335">
        <ele>426.9</ele>
      </trkpt>
      <trkpt lat="43.30321" lon="-1.29328">
        <ele>427</ele>
      </trkpt>
      <trkpt lat="43.30323" lon="-1.29322">
        <ele>427</ele>
      </trkpt>
      <trkpt lat="43.30323" lon="-1.29316">
        <ele>427.6</ele>
      </trkpt>
      <trkpt lat="43.30323" lon="-1.2931">
        <ele>428.2</ele>
      </trkpt>
      <trkpt lat="43.30326" lon="-1.29305">
        <ele>428</ele>
      </trkpt>
      <trkpt lat="43.3033" lon="-1.29305">
        <ele>427</ele>
      </trkpt>
      <trkpt lat="43.30334" lon="-1.29303">
        <ele>426.5</ele>
      </trkpt>
      <trkpt lat="43.30335" lon="-1.29303">
        <ele>426.4</ele>
        <extensions>
          <visugpx:TrkExtension xmlns:visugpx="https://www.visugpx.com/editgpx/">
            <visugpx:node>8</visugpx:node>
            </visugpx:TrkExtension>
        </extensions>
      </trkpt>
      <trkpt lat="43.30339" lon="-1.29301">
        <ele>426.2</ele>
      </trkpt>
      <trkpt lat="43.30343" lon="-1.29296">
        <ele>426.7</ele>
      </trkpt>
      <trkpt lat="43.30347" lon="-1.29291">
        <ele>426.9</ele>
      </trkpt>
      <trkpt lat="43.30351" lon="-1.29282">
        <ele>427.8</ele>
      </trkpt>
      <trkpt lat="43.30354" lon="-1.29276">
        <ele>428.2</ele>
      </trkpt>
      <trkpt lat="43.30358" lon="-1.29272">
        <ele>428</ele>
      </trkpt>
      <trkpt lat="43.30363" lon="-1.29265">
        <ele>428.3</ele>
      </trkpt>
      <trkpt lat="43.3037" lon="-1.29254">
        <ele>428.7</ele>
      </trkpt>
      <trkpt lat="43.30373" lon="-1.29248">
        <ele>428.7</ele>
      </trkpt>
      <trkpt lat="43.30375" lon="-1.29238">
        <ele>428.9</ele>
      </trkpt>
      <trkpt lat="43.30377" lon="-1.29219">
        <ele>429.6</ele>
      </trkpt>
      <trkpt lat="43.3038" lon="-1.292">
        <ele>429.9</ele>
      </trkpt>
      <trkpt lat="43.30386" lon="-1.29181">
        <ele>430.1</ele>
      </trkpt>
      <trkpt lat="43.30393" lon="-1.2916">
        <ele>430.8</ele>
      </trkpt>
      <trkpt lat="43.30399" lon="-1.29143">
        <ele>431.1</ele>
      </trkpt>
      <trkpt lat="43.30403" lon="-1.29123">
        <ele>431.3</ele>
      </trkpt>
      <trkpt lat="43.30408" lon="-1.29098">
        <ele>430.5</ele>
      </trkpt>
      <trkpt lat="43.30411" lon="-1.29085">
        <ele>429.6</ele>
      </trkpt>
      <trkpt lat="43.30413" lon="-1.29077">
        <ele>428.6</ele>
      </trkpt>
      <trkpt lat="43.30414" lon="-1.2907">
        <ele>427.8</ele>
      </trkpt>
      <trkpt lat="43.30414" lon="-1.29067">
        <ele>427.6</ele>
      </trkpt>
      <trkpt lat="43.30414" lon="-1.29059">
        <ele>427</ele>
      </trkpt>
      <trkpt lat="43.30411" lon="-1.29048">
        <ele>425.8</ele>
      </trkpt>
      <trkpt lat="43.30406" lon="-1.29032">
        <ele>423.5</ele>
      </trkpt>
      <trkpt lat="43.30405" lon="-1.29025">
        <ele>423.1</ele>
      </trkpt>
      <trkpt lat="43.30405" lon="-1.2902">
        <ele>423.6</ele>
      </trkpt>
      <trkpt lat="43.30407" lon="-1.29017">
        <ele>423.3</ele>
      </trkpt>
      <trkpt lat="43.30408" lon="-1.29014">
        <ele>423.3</ele>
      </trkpt>
      <trkpt lat="43.30413" lon="-1.29004">
        <ele>422.8</ele>
      </trkpt>
      <trkpt lat="43.30418" lon="-1.28997">
        <ele>421.7</ele>
      </trkpt>
      <trkpt lat="43.30426" lon="-1.28985">
        <ele>420.1</ele>
      </trkpt>
      <trkpt lat="43.30431" lon="-1.28972">
        <ele>419.9</ele>
      </trkpt>
      <trkpt lat="43.30437" lon="-1.28956">
        <ele>417.9</ele>
      </trkpt>
      <trkpt lat="43.30438" lon="-1.28946">
        <ele>417.4</ele>
      </trkpt>
      <trkpt lat="43.30438" lon="-1.28931">
        <ele>417.5</ele>
      </trkpt>
      <trkpt lat="43.30438" lon="-1.28924">
        <ele>417.5</ele>
      </trkpt>
      <trkpt lat="43.30439" lon="-1.28916">
        <ele>417.4</ele>
      </trkpt>
      <trkpt lat="43.30441" lon="-1.28907">
        <ele>417.6</ele>
      </trkpt>
      <trkpt lat="43.30443" lon="-1.28895">
        <ele>418</ele>
      </trkpt>
      <trkpt lat="43.30443" lon="-1.28889">
        <ele>418.4</ele>
      </trkpt>
      <trkpt lat="43.30441" lon="-1.28882">
        <ele>417.5</ele>
      </trkpt>
      <trkpt lat="43.30437" lon="-1.28875">
        <ele>417.1</ele>
      </trkpt>
      <trkpt lat="43.30432" lon="-1.28868">
        <ele>417.1</ele>
      </trkpt>
      <trkpt lat="43.30429" lon="-1.28861">
        <ele>416.5</ele>
      </trkpt>
      <trkpt lat="43.30428" lon="-1.28857">
        <ele>417.1</ele>
      </trkpt>
      <trkpt lat="43.30428" lon="-1.28854">
        <ele>417.3</ele>
      </trkpt>
      <trkpt lat="43.30431" lon="-1.28848">
        <ele>417.1</ele>
      </trkpt>
      <trkpt lat="43.30436" lon="-1.28849">
        <ele>415.8</ele>
      </trkpt>
      <trkpt lat="43.30442" lon="-1.2885">
        <ele>414.2</ele>
      </trkpt>
      <trkpt lat="43.30447" lon="-1.28851">
        <ele>412.9</ele>
      </trkpt>
      <trkpt lat="43.30452" lon="-1.28854">
        <ele>411.4</ele>
      </trkpt>
      <trkpt lat="43.30458" lon="-1.28856">
        <ele>409.7</ele>
      </trkpt>
      <trkpt lat="43.30462" lon="-1.28858">
        <ele>408.3</ele>
      </trkpt>
      <trkpt lat="43.30468" lon="-1.2886">
        <ele>406.4</ele>
      </trkpt>
      <trkpt lat="43.30472" lon="-1.2886">
        <ele>405.4</ele>
      </trkpt>
      <trkpt lat="43.30479" lon="-1.2886">
        <ele>403.1</ele>
      </trkpt>
      <trkpt lat="43.30483" lon="-1.2886">
        <ele>401.8</ele>
      </trkpt>
      <trkpt lat="43.30488" lon="-1.2886">
        <ele>400.2</ele>
      </trkpt>
      <trkpt lat="43.30491" lon="-1.2886">
        <ele>399.2</ele>
      </trkpt>
      <trkpt lat="43.30496" lon="-1.28857">
        <ele>398.2</ele>
      </trkpt>
      <trkpt lat="43.305" lon="-1.28853">
        <ele>397.8</ele>
      </trkpt>
      <trkpt lat="43.30504" lon="-1.28851">
        <ele>396.2</ele>
      </trkpt>
      <trkpt lat="43.30508" lon="-1.28848">
        <ele>394.9</ele>
      </trkpt>
      <trkpt lat="43.30513" lon="-1.28846">
        <ele>393</ele>
      </trkpt>
      <trkpt lat="43.30516" lon="-1.28845">
        <ele>391.8</ele>
      </trkpt>
      <trkpt lat="43.3052" lon="-1.28842">
        <ele>390.5</ele>
      </trkpt>
      <trkpt lat="43.30525" lon="-1.28838">
        <ele>389.1</ele>
      </trkpt>
      <trkpt lat="43.30529" lon="-1.28834">
        <ele>388.2</ele>
      </trkpt>
      <trkpt lat="43.30534" lon="-1.28831">
        <ele>386.2</ele>
      </trkpt>
      <trkpt lat="43.30538" lon="-1.28828">
        <ele>384.7</ele>
      </trkpt>
      <trkpt lat="43.30541" lon="-1.28824">
        <ele>383.8</ele>
      </trkpt>
      <trkpt lat="43.30546" lon="-1.2882">
        <ele>382.1</ele>
      </trkpt>
      <trkpt lat="43.30553" lon="-1.28813">
        <ele>379.9</ele>
      </trkpt>
      <trkpt lat="43.30558" lon="-1.28805">
        <ele>378.7</ele>
      </trkpt>
      <trkpt lat="43.30561" lon="-1.28801">
        <ele>377.4</ele>
      </trkpt>
      <trkpt lat="43.30564" lon="-1.288">
        <ele>375.9</ele>
      </trkpt>
      <trkpt lat="43.30568" lon="-1.288">
        <ele>373.6</ele>
      </trkpt>
      <trkpt lat="43.30578" lon="-1.288">
        <ele>368</ele>
      </trkpt>
      <trkpt lat="43.30596" lon="-1.28799">
        <ele>359.3</ele>
      </trkpt>
      <trkpt lat="43.30614" lon="-1.288">
        <ele>351</ele>
      </trkpt>
      <trkpt lat="43.30633" lon="-1.288">
        <ele>344.8</ele>
      </trkpt>
      <trkpt lat="43.30653" lon="-1.28799">
        <ele>338.1</ele>
      </trkpt>
      <trkpt lat="43.30669" lon="-1.28798">
        <ele>332.7</ele>
      </trkpt>
      <trkpt lat="43.30683" lon="-1.28798">
        <ele>327.5</ele>
      </trkpt>
      <trkpt lat="43.30698" lon="-1.28797">
        <ele>322.4</ele>
      </trkpt>
      <trkpt lat="43.30705" lon="-1.28797">
        <ele>320.6</ele>
      </trkpt>
      <trkpt lat="43.30707" lon="-1.28796">
        <ele>320.2</ele>
      </trkpt>
      <trkpt lat="43.3071" lon="-1.28791">
        <ele>319.9</ele>
      </trkpt>
      <trkpt lat="43.30712" lon="-1.28786">
        <ele>320</ele>
      </trkpt>
      <trkpt lat="43.30716" lon="-1.2878">
        <ele>319.9</ele>
      </trkpt>
      <trkpt lat="43.30718" lon="-1.28771">
        <ele>320.3</ele>
      </trkpt>
      <trkpt lat="43.3072" lon="-1.28762">
        <ele>320.6</ele>
      </trkpt>
      <trkpt lat="43.3072" lon="-1.28751">
        <ele>321.4</ele>
      </trkpt>
      <trkpt lat="43.30719" lon="-1.2874">
        <ele>321.5</ele>
      </trkpt>
      <trkpt lat="43.30718" lon="-1.28734">
        <ele>321.6</ele>
      </trkpt>
      <trkpt lat="43.30718" lon="-1.28726">
        <ele>321.4</ele>
      </trkpt>
      <trkpt lat="43.30718" lon="-1.28715">
        <ele>321.1</ele>
      </trkpt>
      <trkpt lat="43.30718" lon="-1.28705">
        <ele>320.8</ele>
      </trkpt>
      <trkpt lat="43.30718" lon="-1.28696">
        <ele>320.6</ele>
      </trkpt>
      <trkpt lat="43.30717" lon="-1.28686">
        <ele>321.5</ele>
      </trkpt>
      <trkpt lat="43.30717" lon="-1.28677">
        <ele>322.3</ele>
      </trkpt>
      <trkpt lat="43.30723" lon="-1.28663">
        <ele>321</ele>
      </trkpt>
      <trkpt lat="43.30727" lon="-1.28655">
        <ele>320.3</ele>
      </trkpt>
      <trkpt lat="43.30728" lon="-1.28646">
        <ele>320.6</ele>
      </trkpt>
      <trkpt lat="43.3073" lon="-1.28638">
        <ele>320.5</ele>
      </trkpt>
      <trkpt lat="43.30731" lon="-1.28628">
        <ele>320.7</ele>
      </trkpt>
      <trkpt lat="43.30732" lon="-1.28621">
        <ele>320.7</ele>
      </trkpt>
      <trkpt lat="43.30736" lon="-1.28614">
        <ele>319.4</ele>
      </trkpt>
      <trkpt lat="43.30738" lon="-1.28606">
        <ele>318.6</ele>
      </trkpt>
      <trkpt lat="43.30741" lon="-1.28598">
        <ele>317.2</ele>
      </trkpt>
      <trkpt lat="43.30743" lon="-1.28591">
        <ele>316.2</ele>
      </trkpt>
      <trkpt lat="43.30757" lon="-1.28549">
        <ele>311</ele>
      </trkpt>
      <trkpt lat="43.30767" lon="-1.28515">
        <ele>309.3</ele>
      </trkpt>
      <trkpt lat="43.30772" lon="-1.28488">
        <ele>308.2</ele>
      </trkpt>
      <trkpt lat="43.30776" lon="-1.2846">
        <ele>306.7</ele>
      </trkpt>
      <trkpt lat="43.30778" lon="-1.28439">
        <ele>305.5</ele>
      </trkpt>
      <trkpt lat="43.30778" lon="-1.28424">
        <ele>304.4</ele>
      </trkpt>
      <trkpt lat="43.30777" lon="-1.28415">
        <ele>304.3</ele>
      </trkpt>
      <trkpt lat="43.30777" lon="-1.2841">
        <ele>304.3</ele>
      </trkpt>
      <trkpt lat="43.30777" lon="-1.28405">
        <ele>304.3</ele>
      </trkpt>
      <trkpt lat="43.3078" lon="-1.284">
        <ele>303.3</ele>
      </trkpt>
      <trkpt lat="43.30786" lon="-1.28393">
        <ele>301.5</ele>
      </trkpt>
      <trkpt lat="43.30792" lon="-1.2838">
        <ele>300.7</ele>
      </trkpt>
      <trkpt lat="43.30802" lon="-1.28356">
        <ele>299.3</ele>
      </trkpt>
      <trkpt lat="43.30808" lon="-1.28332">
        <ele>298.5</ele>
      </trkpt>
      <trkpt lat="43.30826" lon="-1.2827">
        <ele>295.6</ele>
      </trkpt>
      <trkpt lat="43.30836" lon="-1.28244">
        <ele>295.1</ele>
      </trkpt>
      <trkpt lat="43.30839" lon="-1.28237">
        <ele>295.4</ele>
      </trkpt>
      <trkpt lat="43.30842" lon="-1.28234">
        <ele>295.7</ele>
      </trkpt>
      <trkpt lat="43.30847" lon="-1.28232">
        <ele>295.9</ele>
      </trkpt>
      <trkpt lat="43.30852" lon="-1.28233">
        <ele>295.9</ele>
      </trkpt>
      <trkpt lat="43.30859" lon="-1.28238">
        <ele>295.2</ele>
      </trkpt>
      <trkpt lat="43.30868" lon="-1.28242">
        <ele>295.3</ele>
      </trkpt>
      <trkpt lat="43.30882" lon="-1.28247">
        <ele>296.4</ele>
      </trkpt>
      <trkpt lat="43.30901" lon="-1.28252">
        <ele>297.3</ele>
      </trkpt>
      <trkpt lat="43.30916" lon="-1.28255">
        <ele>297.8</ele>
      </trkpt>
      <trkpt lat="43.30925" lon="-1.28256">
        <ele>297.8</ele>
      </trkpt>
      <trkpt lat="43.30923" lon="-1.2825">
        <ele>298</ele>
      </trkpt>
      <trkpt lat="43.3091" lon="-1.28202">
        <ele>300.3</ele>
      </trkpt>
      <trkpt lat="43.309" lon="-1.28168">
        <ele>302.2</ele>
      </trkpt>
      <trkpt lat="43.30892" lon="-1.28136">
        <ele>301.7</ele>
      </trkpt>
      <trkpt lat="43.30896" lon="-1.28136">
        <ele>301.4</ele>
      </trkpt>
      <trkpt lat="43.30901" lon="-1.28136">
        <ele>301</ele>
      </trkpt>
      <trkpt lat="43.30912" lon="-1.2814">
        <ele>300.4</ele>
      </trkpt>
      <trkpt lat="43.30929" lon="-1.28147">
        <ele>299.8</ele>
      </trkpt>
      <trkpt lat="43.30944" lon="-1.28155">
        <ele>299.6</ele>
      </trkpt>
      <trkpt lat="43.30956" lon="-1.2816">
        <ele>299.8</ele>
      </trkpt>
      <trkpt lat="43.30963" lon="-1.28166">
        <ele>300</ele>
      </trkpt>
      <trkpt lat="43.30971" lon="-1.28175">
        <ele>299.7</ele>
      </trkpt>
      <trkpt lat="43.30977" lon="-1.28182">
        <ele>299.5</ele>
      </trkpt>
      <trkpt lat="43.30981" lon="-1.28189">
        <ele>299.4</ele>
      </trkpt>
      <trkpt lat="43.30986" lon="-1.28202">
        <ele>299.4</ele>
      </trkpt>
      <trkpt lat="43.30998" lon="-1.2823">
        <ele>299</ele>
      </trkpt>
      <trkpt lat="43.31001" lon="-1.28236">
        <ele>299</ele>
      </trkpt>
      <trkpt lat="43.31011" lon="-1.28254">
        <ele>298.9</ele>
      </trkpt>
      <trkpt lat="43.31012" lon="-1.28255">
        <ele>298.9</ele>
        <extensions>
          <visugpx:TrkExtension xmlns:visugpx="https://www.visugpx.com/editgpx/">
            <visugpx:node>9</visugpx:node>
            </visugpx:TrkExtension>
        </extensions>
      </trkpt>
    </trkseg>
  </trk>
</gpx>